<?xml version='1.0' encoding='UTF-8'?><gpx version="1.1" creator="JPX - https://github.com/jenetics/jpx" xmlns="http://www.topografix.com/GPX/1/1"><trk><trkseg><trkpt lat="38.15842510238587" lon="15.464955025614465"><ele>1107.0</ele><time>2026-04-11T08:58:28Z</time></trkpt><trkpt lat="38.15848194085845" lon="15.464993824480985"><ele>1107.0</ele><time>2026-04-11T08:58:31Z</time></trkpt><trkpt lat="38.15854206472092" lon="15.464909131580159"><ele>1107.0</ele><time>2026-04-11T08:58:34Z</time></trkpt><trkpt lat="38.15855371242421" lon="15.464799887446288"><ele>1107.0</ele><time>2026-04-11T08:58:37Z</time></trkpt><trkpt lat="38.15855961124243" lon="15.464709548242935"><ele>1107.0</ele><time>2026-04-11T08:58:39Z</time></trkpt><trkpt lat="38.15856737492636" lon="15.464626872810994"><ele>1107.0</ele><time>2026-04-11T08:58:41Z</time></trkpt><trkpt lat="38.15858209570996" lon="15.464529897792215"><ele>1107.4</ele><time>2026-04-11T08:58:43Z</time></trkpt><trkpt lat="38.158621420890974" lon="15.464429965474954"><ele>1107.8000000000002</ele><time>2026-04-11T08:58:45Z</time></trkpt><trkpt lat="38.15869646358101" lon="15.464343791965707"><ele>1108.2</ele><time>2026-04-11T08:58:47Z</time></trkpt><trkpt lat="38.15878048603017" lon="15.464271826837246"><ele>1108.6000000000001</ele><time>2026-04-11T08:58:49Z</time></trkpt><trkpt lat="38.158857734834655" lon="15.464171811997572"><ele>1109.0</ele><time>2026-04-11T08:58:51Z</time></trkpt><trkpt lat="38.15893713756635" lon="15.46406497039074"><ele>1109.0</ele><time>2026-04-11T08:58:53Z</time></trkpt><trkpt lat="38.15903294215163" lon="15.463952829772799"><ele>1109.0</ele><time>2026-04-11T08:58:55Z</time></trkpt><trkpt lat="38.159094262327656" lon="15.463895497217532"><ele>1109.0</ele><time>2026-04-11T08:58:56Z</time></trkpt><trkpt lat="38.15918087517959" lon="15.463875623630909"><ele>1109.0</ele><time>2026-04-11T08:58:57Z</time></trkpt><trkpt lat="38.159239820746684" lon="15.463791846549235"><ele>1109.0</ele><time>2026-04-11T08:58:58Z</time></trkpt><trkpt lat="38.15931280599679" lon="15.463732987220984"><ele>1103.0</ele><time>2026-04-11T08:58:59Z</time></trkpt><trkpt lat="38.15937630433861" lon="15.463667050119138"><ele>1097.0</ele><time>2026-04-11T08:59:00Z</time></trkpt><trkpt lat="38.15943988308414" lon="15.463592642205706"><ele>1091.0</ele><time>2026-04-11T08:59:01Z</time></trkpt><trkpt lat="38.15952440231888" lon="15.463549997245108"><ele>1085.0</ele><time>2026-04-11T08:59:02Z</time></trkpt><trkpt lat="38.15958818244922" lon="15.463480889727713"><ele>1079.0</ele><time>2026-04-11T08:59:03Z</time></trkpt><trkpt lat="38.159640655536414" lon="15.463398659842737"><ele>1073.0</ele><time>2026-04-11T08:59:04Z</time></trkpt><trkpt lat="38.159706283327985" lon="15.463330057311682"><ele>1073.0</ele><time>2026-04-11T08:59:05Z</time></trkpt><trkpt lat="38.1597686901028" lon="15.463260837772147"><ele>1073.0</ele><time>2026-04-11T08:59:06Z</time></trkpt><trkpt lat="38.15984032059506" lon="15.463211013356384"><ele>1073.0</ele><time>2026-04-11T08:59:07Z</time></trkpt><trkpt lat="38.15989427641996" lon="15.463126226911994"><ele>1073.0</ele><time>2026-04-11T08:59:08Z</time></trkpt><trkpt lat="38.159954759986924" lon="15.463064659930481"><ele>1073.0</ele><time>2026-04-11T08:59:09Z</time></trkpt><trkpt lat="38.16001804571974" lon="15.463016539854175"><ele>1073.0</ele><time>2026-04-11T08:59:10Z</time></trkpt><trkpt lat="38.1601402585087" lon="15.463053387640757"><ele>1074.5</ele><time>2026-04-11T08:59:12Z</time></trkpt><trkpt lat="38.16018699940991" lon="15.463107221836284"><ele>1076.0</ele><time>2026-04-11T08:59:13Z</time></trkpt><trkpt lat="38.16024782786529" lon="15.463166192030611"><ele>1077.5</ele><time>2026-04-11T08:59:14Z</time></trkpt><trkpt lat="38.16030434105699" lon="15.463234038775317"><ele>1079.0</ele><time>2026-04-11T08:59:15Z</time></trkpt><trkpt lat="38.16036562494993" lon="15.46331303600365"><ele>1080.5</ele><time>2026-04-11T08:59:16Z</time></trkpt><trkpt lat="38.16042613029182" lon="15.463401767760764"><ele>1082.0</ele><time>2026-04-11T08:59:17Z</time></trkpt><trkpt lat="38.16049202038811" lon="15.463489284923089"><ele>1082.0</ele><time>2026-04-11T08:59:18Z</time></trkpt><trkpt lat="38.16054927764904" lon="15.463579050921249"><ele>1082.0</ele><time>2026-04-11T08:59:19Z</time></trkpt><trkpt lat="38.16058785581076" lon="15.463678021539518"><ele>1082.0</ele><time>2026-04-11T08:59:20Z</time></trkpt><trkpt lat="38.16063716471065" lon="15.46378050228565"><ele>1082.0</ele><time>2026-04-11T08:59:21Z</time></trkpt><trkpt lat="38.16064660012467" lon="15.463898409761104"><ele>1082.0</ele><time>2026-04-11T08:59:22Z</time></trkpt><trkpt lat="38.160677203148914" lon="15.464001597009482"><ele>1080.0</ele><time>2026-04-11T08:59:23Z</time></trkpt><trkpt lat="38.160727599301005" lon="15.464101696615055"><ele>1078.0</ele><time>2026-04-11T08:59:24Z</time></trkpt><trkpt lat="38.16077859693157" lon="15.464198903499756"><ele>1076.0</ele><time>2026-04-11T08:59:25Z</time></trkpt><trkpt lat="38.16082946023175" lon="15.464289474965435"><ele>1074.0</ele><time>2026-04-11T08:59:26Z</time></trkpt><trkpt lat="38.16089235466867" lon="15.46436743235223"><ele>1072.0</ele><time>2026-04-11T08:59:27Z</time></trkpt><trkpt lat="38.160964275319486" lon="15.464431069040632"><ele>1070.0</ele><time>2026-04-11T08:59:28Z</time></trkpt><trkpt lat="38.16102686934606" lon="15.464500062515304"><ele>1070.0</ele><time>2026-04-11T08:59:29Z</time></trkpt><trkpt lat="38.16109037850816" lon="15.464549493919055"><ele>1070.0</ele><time>2026-04-11T08:59:30.001Z</time></trkpt><trkpt lat="38.16114718318787" lon="15.46460138498184"><ele>1070.0</ele><time>2026-04-11T08:59:31.001Z</time></trkpt><trkpt lat="38.16118763117496" lon="15.464673573853998"><ele>1070.0</ele><time>2026-04-11T08:59:32.001Z</time></trkpt><trkpt lat="38.161243018165976" lon="15.46473831733991"><ele>1070.0</ele><time>2026-04-11T08:59:33.001Z</time></trkpt><trkpt lat="38.161290099838446" lon="15.464794253891531"><ele>1070.0</ele><time>2026-04-11T08:59:34.001Z</time></trkpt><trkpt lat="38.16136026124567" lon="15.464920723008772"><ele>1071.0</ele><time>2026-04-11T08:59:36.001Z</time></trkpt><trkpt lat="38.16141153673453" lon="15.46501669810848"><ele>1072.0</ele><time>2026-04-11T08:59:38.001Z</time></trkpt><trkpt lat="38.161355362660125" lon="15.465138388315708"><ele>1073.0</ele><time>2026-04-11T08:59:58.001Z</time></trkpt><trkpt lat="38.161251802305706" lon="15.465185728479646"><ele>1074.0</ele><time>2026-04-11T09:00:01.001Z</time></trkpt><trkpt lat="38.16116203937618" lon="15.465253016390482"><ele>1075.0</ele><time>2026-04-11T09:00:03.001Z</time></trkpt><trkpt lat="38.16110408485596" lon="15.465303081790823"><ele>1075.0</ele><time>2026-04-11T09:00:04.001Z</time></trkpt><trkpt lat="38.16104988894184" lon="15.465356970452829"><ele>1075.0</ele><time>2026-04-11T09:00:05.001Z</time></trkpt><trkpt lat="38.16099452941828" lon="15.465409357090868"><ele>1075.0</ele><time>2026-04-11T09:00:06.001Z</time></trkpt><trkpt lat="38.16088985009279" lon="15.465507461990649"><ele>1075.0</ele><time>2026-04-11T09:00:08.001Z</time></trkpt><trkpt lat="38.160788012573484" lon="15.465594726388945"><ele>1075.0</ele><time>2026-04-11T09:00:10.001Z</time></trkpt><trkpt lat="38.16073221682457" lon="15.465636714560043"><ele>1077.4</ele><time>2026-04-11T09:00:11.001Z</time></trkpt><trkpt lat="38.16063172662616" lon="15.465723868728912"><ele>1079.8</ele><time>2026-04-11T09:00:13.001Z</time></trkpt><trkpt lat="38.1605631059432" lon="15.465814972192595"><ele>1082.2</ele><time>2026-04-11T09:00:15.001Z</time></trkpt><trkpt lat="38.16052325767184" lon="15.465933329104878"><ele>1084.6</ele><time>2026-04-11T09:00:17Z</time></trkpt><trkpt lat="38.16053463469506" lon="15.466077368105918"><ele>1087.0</ele><time>2026-04-11T09:00:19Z</time></trkpt><trkpt lat="38.160558911443495" lon="15.466222629113712"><ele>1082.4</ele><time>2026-04-11T09:00:21Z</time></trkpt><trkpt lat="38.16058566686817" lon="15.466360942872262"><ele>1077.8000000000002</ele><time>2026-04-11T09:00:23Z</time></trkpt><trkpt lat="38.16060841635148" lon="15.46647975365313"><ele>1073.2</ele><time>2026-04-11T09:00:25Z</time></trkpt><trkpt lat="38.160628524871385" lon="15.466626140284948"><ele>1068.6000000000001</ele><time>2026-04-11T09:00:27Z</time></trkpt><trkpt lat="38.160612841240265" lon="15.46673844979049"><ele>1064.0</ele><time>2026-04-11T09:00:29Z</time></trkpt><trkpt lat="38.160556092234316" lon="15.466869240502668"><ele>1064.0</ele><time>2026-04-11T09:00:31Z</time></trkpt><trkpt lat="38.16047425102959" lon="15.466991154633348"><ele>1064.0</ele><time>2026-04-11T09:00:33Z</time></trkpt><trkpt lat="38.16037465466869" lon="15.467084374666376"><ele>1064.0</ele><time>2026-04-11T09:00:35Z</time></trkpt><trkpt lat="38.16026181958257" lon="15.467135068335537"><ele>1064.0</ele><time>2026-04-11T09:00:37Z</time></trkpt><trkpt lat="38.16019924431672" lon="15.467155855016685"><ele>1064.0</ele><time>2026-04-11T09:00:38Z</time></trkpt><trkpt lat="38.160071440634894" lon="15.467176587739358"><ele>1057.4</ele><time>2026-04-11T09:00:40Z</time></trkpt><trkpt lat="38.15994624489523" lon="15.467194807065862"><ele>1050.8000000000002</ele><time>2026-04-11T09:00:42Z</time></trkpt><trkpt lat="38.159859790704544" lon="15.467233523138084"><ele>1044.1999999999998</ele><time>2026-04-11T09:00:44Z</time></trkpt><trkpt lat="38.15975557578422" lon="15.467304086822944"><ele>1037.6</ele><time>2026-04-11T09:00:46Z</time></trkpt><trkpt lat="38.15969523440283" lon="15.467417159577224"><ele>1031.0</ele><time>2026-04-11T09:00:48Z</time></trkpt><trkpt lat="38.159639316821604" lon="15.467536249222384"><ele>1031.0</ele><time>2026-04-11T09:00:50Z</time></trkpt><trkpt lat="38.15959485071287" lon="15.467641707364237"><ele>1031.0</ele><time>2026-04-11T09:00:52Z</time></trkpt><trkpt lat="38.15955234750051" lon="15.467727518422343"><ele>1031.0</ele><time>2026-04-11T09:00:54Z</time></trkpt><trkpt lat="38.159467311736485" lon="15.467779746501773"><ele>1031.0</ele><time>2026-04-11T09:00:56Z</time></trkpt><trkpt lat="38.159354559742866" lon="15.467784591165064"><ele>1031.0</ele><time>2026-04-11T09:00:58Z</time></trkpt><trkpt lat="38.159239171190855" lon="15.467787817737301"><ele>1031.0</ele><time>2026-04-11T09:01:00Z</time></trkpt><trkpt lat="38.15911803248727" lon="15.467805276113824"><ele>1031.0</ele><time>2026-04-11T09:01:02Z</time></trkpt><trkpt lat="38.15900191807428" lon="15.467799533072327"><ele>1031.0</ele><time>2026-04-11T09:01:04Z</time></trkpt><trkpt lat="38.15889795407236" lon="15.46776981390205"><ele>1031.0</ele><time>2026-04-11T09:01:06Z</time></trkpt><trkpt lat="38.158798601093984" lon="15.467718655451423"><ele>1024.6</ele><time>2026-04-11T09:01:08Z</time></trkpt><trkpt lat="38.158709316341636" lon="15.467647415844695"><ele>1018.1999999999999</ele><time>2026-04-11T09:01:10Z</time></trkpt><trkpt lat="38.15862384067585" lon="15.467574719266292"><ele>1011.8000000000001</ele><time>2026-04-11T09:01:12Z</time></trkpt><trkpt lat="38.158574686543645" lon="15.467496565386488"><ele>1005.4000000000001</ele><time>2026-04-11T09:01:14Z</time></trkpt><trkpt lat="38.158559630823135" lon="15.46740068324122"><ele>999.0</ele><time>2026-04-11T09:01:16Z</time></trkpt><trkpt lat="38.158584064099266" lon="15.46729461147359"><ele>999.0</ele><time>2026-04-11T09:01:18Z</time></trkpt><trkpt lat="38.158556081478565" lon="15.467158152049011"><ele>999.0</ele><time>2026-04-11T09:01:20Z</time></trkpt><trkpt lat="38.158507521255814" lon="15.46710255537802"><ele>999.0</ele><time>2026-04-11T09:01:21Z</time></trkpt><trkpt lat="38.15846883032729" lon="15.467037574434281"><ele>999.0</ele><time>2026-04-11T09:01:22Z</time></trkpt><trkpt lat="38.158413059856365" lon="15.466966950041265"><ele>999.0</ele><time>2026-04-11T09:01:23Z</time></trkpt><trkpt lat="38.15837516695935" lon="15.46689734290863"><ele>999.0</ele><time>2026-04-11T09:01:24Z</time></trkpt><trkpt lat="38.15832968792331" lon="15.466803546095441"><ele>997.6</ele><time>2026-04-11T09:01:26Z</time></trkpt><trkpt lat="38.15826350654819" lon="15.466699326455888"><ele>996.2</ele><time>2026-04-11T09:01:28Z</time></trkpt><trkpt lat="38.15817102635286" lon="15.46661470874985"><ele>994.8000000000001</ele><time>2026-04-11T09:01:30Z</time></trkpt><trkpt lat="38.15807038986775" lon="15.466578777284818"><ele>993.4000000000001</ele><time>2026-04-11T09:01:32Z</time></trkpt><trkpt lat="38.157957769149036" lon="15.466593888248012"><ele>992.0</ele><time>2026-04-11T09:01:34Z</time></trkpt><trkpt lat="38.15785814074249" lon="15.466592190604045"><ele>992.0</ele><time>2026-04-11T09:01:36Z</time></trkpt><trkpt lat="38.15774455698713" lon="15.466598672802398"><ele>992.0</ele><time>2026-04-11T09:01:38Z</time></trkpt><trkpt lat="38.15767645440639" lon="15.466615965232306"><ele>992.0</ele><time>2026-04-11T09:01:39Z</time></trkpt><trkpt lat="38.15755750155518" lon="15.466653158030478"><ele>992.0</ele><time>2026-04-11T09:01:41.001Z</time></trkpt><trkpt lat="38.1574995605365" lon="15.46668503212166"><ele>992.0</ele><time>2026-04-11T09:01:42Z</time></trkpt><trkpt lat="38.15741034054268" lon="15.466740549314448"><ele>984.6</ele><time>2026-04-11T09:01:44Z</time></trkpt><trkpt lat="38.15731743382226" lon="15.466773382798289"><ele>977.2</ele><time>2026-04-11T09:01:46Z</time></trkpt><trkpt lat="38.15722667327591" lon="15.466721659994695"><ele>969.8</ele><time>2026-04-11T09:01:48Z</time></trkpt><trkpt lat="38.15715870270512" lon="15.466626121685122"><ele>962.4</ele><time>2026-04-11T09:01:50Z</time></trkpt><trkpt lat="38.15713720581565" lon="15.466518185376545"><ele>955.0</ele><time>2026-04-11T09:01:52Z</time></trkpt><trkpt lat="38.15718825594396" lon="15.4664634005227"><ele>954.9999999999999</ele><time>2026-04-11T09:01:53Z</time></trkpt><trkpt lat="38.15726034223216" lon="15.466391393287955"><ele>955.0</ele><time>2026-04-11T09:01:55Z</time></trkpt><trkpt lat="38.15734068918275" lon="15.466316769295782"><ele>955.0</ele><time>2026-04-11T09:01:57Z</time></trkpt><trkpt lat="38.15736581390544" lon="15.466218428028906"><ele>955.0</ele><time>2026-04-11T09:01:58Z</time></trkpt><trkpt lat="38.157351344308914" lon="15.466115213973575"><ele>954.9999999999999</ele><time>2026-04-11T09:01:59Z</time></trkpt><trkpt lat="38.15731094810716" lon="15.46603854249321"><ele>955.0</ele><time>2026-04-11T09:02:00Z</time></trkpt><trkpt lat="38.1572469445818" lon="15.465902706170542"><ele>959.3333333333333</ele><time>2026-04-11T09:02:02Z</time></trkpt><trkpt lat="38.15720862996688" lon="15.46583302097371"><ele>963.6666666666666</ele><time>2026-04-11T09:02:03Z</time></trkpt><trkpt lat="38.15716711843191" lon="15.465768497951471"><ele>968.0</ele><time>2026-04-11T09:02:04Z</time></trkpt><trkpt lat="38.15710781331461" lon="15.465708050732609"><ele>972.3333333333333</ele><time>2026-04-11T09:02:05Z</time></trkpt><trkpt lat="38.157054146548106" lon="15.465664483382305"><ele>976.6666666666666</ele><time>2026-04-11T09:02:06Z</time></trkpt><trkpt lat="38.15695153772013" lon="15.465617129593184"><ele>981.0</ele><time>2026-04-11T09:02:08Z</time></trkpt><trkpt lat="38.15684359457954" lon="15.465626919569269"><ele>981.0</ele><time>2026-04-11T09:02:10Z</time></trkpt><trkpt lat="38.15673833098883" lon="15.46563012272421"><ele>981.0</ele><time>2026-04-11T09:02:12Z</time></trkpt><trkpt lat="38.15666170286231" lon="15.465532186819331"><ele>981.0</ele><time>2026-04-11T09:02:14Z</time></trkpt><trkpt lat="38.15666339824353" lon="15.465441332552862"><ele>981.0</ele><time>2026-04-11T09:02:15Z</time></trkpt><trkpt lat="38.15662788220653" lon="15.465351792791624"><ele>981.0</ele><time>2026-04-11T09:02:16Z</time></trkpt><trkpt lat="38.15657806513162" lon="15.465279451635649"><ele>981.0</ele><time>2026-04-11T09:02:17Z</time></trkpt><trkpt lat="38.15649818476313" lon="15.46516695608943"><ele>978.6666666666666</ele><time>2026-04-11T09:02:19Z</time></trkpt><trkpt lat="38.15643445448787" lon="15.465166931440526"><ele>976.3333333333333</ele><time>2026-04-11T09:02:20Z</time></trkpt><trkpt lat="38.15636672488834" lon="15.465161770237684"><ele>974.0</ele><time>2026-04-11T09:02:21Z</time></trkpt><trkpt lat="38.15626023932832" lon="15.465081314328968"><ele>971.6666666666666</ele><time>2026-04-11T09:02:22.999Z</time></trkpt><trkpt lat="38.156205463834475" lon="15.465041574942017"><ele>969.3333333333333</ele><time>2026-04-11T09:02:23.999Z</time></trkpt><trkpt lat="38.15614256102705" lon="15.464953322332509"><ele>967.0</ele><time>2026-04-11T09:02:25.999Z</time></trkpt><trkpt lat="38.15613066266615" lon="15.464814508296286"><ele>967.0</ele><time>2026-04-11T09:02:27.999Z</time></trkpt><trkpt lat="38.15610036128176" lon="15.464681219552547"><ele>967.0</ele><time>2026-04-11T09:02:29.999Z</time></trkpt><trkpt lat="38.156036283256704" lon="15.464645839264548"><ele>967.0</ele><time>2026-04-11T09:02:30.999Z</time></trkpt><trkpt lat="38.15592842470866" lon="15.464552473576779"><ele>967.0</ele><time>2026-04-11T09:02:32.999Z</time></trkpt><trkpt lat="38.15586218298501" lon="15.464486263449523"><ele>967.0</ele><time>2026-04-11T09:02:33.999Z</time></trkpt><trkpt lat="38.155808171207" lon="15.46441655579834"><ele>967.2</ele><time>2026-04-11T09:02:34.999Z</time></trkpt><trkpt lat="38.15571256390434" lon="15.464319206658802"><ele>967.4000000000001</ele><time>2026-04-11T09:02:36.999Z</time></trkpt><trkpt lat="38.15562373144525" lon="15.46420989935154"><ele>967.5999999999999</ele><time>2026-04-11T09:02:38.999Z</time></trkpt><trkpt lat="38.15557184041578" lon="15.464141827086749"><ele>967.8</ele><time>2026-04-11T09:02:39.999Z</time></trkpt><trkpt lat="38.155483404115145" lon="15.464055272136255"><ele>968.0</ele><time>2026-04-11T09:02:41.999Z</time></trkpt><trkpt lat="38.1554229346102" lon="15.464015425163732"><ele>968.0000000000001</ele><time>2026-04-11T09:02:42.999Z</time></trkpt><trkpt lat="38.15536292031868" lon="15.463976371083866"><ele>968.0</ele><time>2026-04-11T09:02:43.999Z</time></trkpt><trkpt lat="38.155251261977114" lon="15.463905000911737"><ele>968.0</ele><time>2026-04-11T09:02:45.999Z</time></trkpt><trkpt lat="38.15518704425253" lon="15.463869081608953"><ele>968.0</ele><time>2026-04-11T09:02:46.999Z</time></trkpt><trkpt lat="38.15513103352484" lon="15.46382485671542"><ele>968.0000000000001</ele><time>2026-04-11T09:02:47.999Z</time></trkpt><trkpt lat="38.15506888414943" lon="15.463793285810352"><ele>968.0</ele><time>2026-04-11T09:02:48.999Z</time></trkpt><trkpt lat="38.154996842127936" lon="15.463678391201727"><ele>969.6666666666667</ele><time>2026-04-11T09:02:50.999Z</time></trkpt><trkpt lat="38.154902457242045" lon="15.46360056496594"><ele>971.3333333333334</ele><time>2026-04-11T09:02:53Z</time></trkpt><trkpt lat="38.15484083775212" lon="15.46355543219225"><ele>973.0</ele><time>2026-04-11T09:02:54Z</time></trkpt><trkpt lat="38.15478274076666" lon="15.463516600356332"><ele>974.6666666666667</ele><time>2026-04-11T09:02:55Z</time></trkpt><trkpt lat="38.15472012448259" lon="15.463503139305704"><ele>976.3333333333334</ele><time>2026-04-11T09:02:56Z</time></trkpt><trkpt lat="38.15465090939286" lon="15.4635068133905"><ele>978.0</ele><time>2026-04-11T09:02:57Z</time></trkpt><trkpt lat="38.15458632686448" lon="15.463480005248682"><ele>978.0</ele><time>2026-04-11T09:02:58Z</time></trkpt><trkpt lat="38.154513688700376" lon="15.463481192933903"><ele>978.0</ele><time>2026-04-11T09:02:59Z</time></trkpt><trkpt lat="38.15445710638142" lon="15.463443125565433"><ele>978.0</ele><time>2026-04-11T09:03:00Z</time></trkpt><trkpt lat="38.154395373676515" lon="15.463405201791032"><ele>978.0</ele><time>2026-04-11T09:03:01Z</time></trkpt><trkpt lat="38.15432769038806" lon="15.463385072968581"><ele>978.0</ele><time>2026-04-11T09:03:02Z</time></trkpt><trkpt lat="38.154253498228755" lon="15.46336273635798"><ele>978.0</ele><time>2026-04-11T09:03:03Z</time></trkpt><trkpt lat="38.15414233503355" lon="15.463300604537602"><ele>978.0</ele><time>2026-04-11T09:03:05Z</time></trkpt><trkpt lat="38.154094058654735" lon="15.463163409037493"><ele>978.0</ele><time>2026-04-11T09:03:07Z</time></trkpt><trkpt lat="38.15406774572844" lon="15.463079838854842"><ele>978.0</ele><time>2026-04-11T09:03:08Z</time></trkpt><trkpt lat="38.1540410595111" lon="15.4630000612033"><ele>978.0</ele><time>2026-04-11T09:03:09Z</time></trkpt><trkpt lat="38.154002680968595" lon="15.462920682743487"><ele>978.0</ele><time>2026-04-11T09:03:10Z</time></trkpt><trkpt lat="38.153995000301066" lon="15.462828078349865"><ele>978.0</ele><time>2026-04-11T09:03:11Z</time></trkpt><trkpt lat="38.15397195431501" lon="15.462745232769587"><ele>976.0</ele><time>2026-04-11T09:03:12Z</time></trkpt><trkpt lat="38.15394425339196" lon="15.462671355246936"><ele>974.0</ele><time>2026-04-11T09:03:13Z</time></trkpt><trkpt lat="38.153880190922756" lon="15.462554545870322"><ele>972.0</ele><time>2026-04-11T09:03:15Z</time></trkpt><trkpt lat="38.15376906599662" lon="15.462544922065696"><ele>970.0</ele><time>2026-04-11T09:03:17Z</time></trkpt><trkpt lat="38.153653534705306" lon="15.462585205954161"><ele>968.0</ele><time>2026-04-11T09:03:19Z</time></trkpt><trkpt lat="38.1535261625387" lon="15.462583165024178"><ele>968.0</ele><time>2026-04-11T09:03:21Z</time></trkpt><trkpt lat="38.1534553095106" lon="15.462591426431954"><ele>968.0</ele><time>2026-04-11T09:03:22Z</time></trkpt><trkpt lat="38.153386901941474" lon="15.462569752463214"><ele>968.0</ele><time>2026-04-11T09:03:23Z</time></trkpt><trkpt lat="38.15326738465931" lon="15.462564640460116"><ele>968.0</ele><time>2026-04-11T09:03:25Z</time></trkpt><trkpt lat="38.153167845592755" lon="15.462580170667712"><ele>968.0</ele><time>2026-04-11T09:03:27Z</time></trkpt><trkpt lat="38.153070702634764" lon="15.46259659983551"><ele>967.5999999999999</ele><time>2026-04-11T09:03:29Z</time></trkpt><trkpt lat="38.1529855856793" lon="15.462588273612019"><ele>967.1999999999999</ele><time>2026-04-11T09:03:31Z</time></trkpt><trkpt lat="38.15289544857897" lon="15.462565308238844"><ele>966.8</ele><time>2026-04-11T09:03:33Z</time></trkpt><trkpt lat="38.152794671420295" lon="15.462563290735547"><ele>966.4</ele><time>2026-04-11T09:03:35Z</time></trkpt><trkpt lat="38.15268505970452" lon="15.462567117179185"><ele>966.0</ele><time>2026-04-11T09:03:37Z</time></trkpt><trkpt lat="38.15257059638002" lon="15.462563566910921"><ele>966.0</ele><time>2026-04-11T09:03:39Z</time></trkpt><trkpt lat="38.152459584965264" lon="15.462567783638054"><ele>965.9999999999999</ele><time>2026-04-11T09:03:41Z</time></trkpt><trkpt lat="38.15233757998548" lon="15.462562791901437"><ele>965.9999999999999</ele><time>2026-04-11T09:03:43Z</time></trkpt><trkpt lat="38.15225915124353" lon="15.462544738408306"><ele>966.0</ele><time>2026-04-11T09:03:44Z</time></trkpt><trkpt lat="38.152183018165886" lon="15.462533669882838"><ele>966.0</ele><time>2026-04-11T09:03:45Z</time></trkpt><trkpt lat="38.15211792944355" lon="15.462545133796592"><ele>967.8</ele><time>2026-04-11T09:03:46Z</time></trkpt><trkpt lat="38.152057511401324" lon="15.462579912693256"><ele>969.5999999999999</ele><time>2026-04-11T09:03:47Z</time></trkpt><trkpt lat="38.15193592057279" lon="15.462613900740697"><ele>971.4</ele><time>2026-04-11T09:03:49Z</time></trkpt><trkpt lat="38.151839510899585" lon="15.462620735509757"><ele>973.2</ele><time>2026-04-11T09:03:51Z</time></trkpt><trkpt lat="38.15170375698751" lon="15.462636104945846"><ele>975.0</ele><time>2026-04-11T09:03:53Z</time></trkpt><trkpt lat="38.15161493212631" lon="15.462629365162696"><ele>976.4285714285713</ele><time>2026-04-11T09:03:54Z</time></trkpt><trkpt lat="38.15153788675897" lon="15.462652750671719"><ele>977.8571428571428</ele><time>2026-04-11T09:03:55Z</time></trkpt><trkpt lat="38.15147449977744" lon="15.462676560873742"><ele>979.2857142857142</ele><time>2026-04-11T09:03:56Z</time></trkpt><trkpt lat="38.1514052750333" lon="15.462703710006263"><ele>980.7142857142858</ele><time>2026-04-11T09:03:57Z</time></trkpt><trkpt lat="38.15133501337382" lon="15.462736555877527"><ele>982.1428571428572</ele><time>2026-04-11T09:03:58Z</time></trkpt><trkpt lat="38.151265375143886" lon="15.462781681566815"><ele>983.5714285714287</ele><time>2026-04-11T09:03:59Z</time></trkpt><trkpt lat="38.15121235745716" lon="15.462849852226814"><ele>985.0</ele><time>2026-04-11T09:04:00Z</time></trkpt><trkpt lat="38.15110242694531" lon="15.462876768570696"><ele>985.0</ele><time>2026-04-11T09:04:02Z</time></trkpt><trkpt lat="38.150988338030295" lon="15.462859659252908"><ele>985.0</ele><time>2026-04-11T09:04:04Z</time></trkpt><trkpt lat="38.150871224569386" lon="15.462795767113173"><ele>985.0</ele><time>2026-04-11T09:04:06Z</time></trkpt><trkpt lat="38.15077026655084" lon="15.462817053029992"><ele>985.0</ele><time>2026-04-11T09:04:07Z</time></trkpt><trkpt lat="38.15068813748032" lon="15.462788511011144"><ele>985.0</ele><time>2026-04-11T09:04:08Z</time></trkpt><trkpt lat="38.15060732626517" lon="15.462778068627902"><ele>984.4999999999999</ele><time>2026-04-11T09:04:09Z</time></trkpt><trkpt lat="38.15052508029251" lon="15.462773469829571"><ele>984.0</ele><time>2026-04-11T09:04:10Z</time></trkpt><trkpt lat="38.15046112984014" lon="15.462778867468804"><ele>983.5</ele><time>2026-04-11T09:04:11Z</time></trkpt><trkpt lat="38.15038825631699" lon="15.462743730533438"><ele>983.0</ele><time>2026-04-11T09:04:13Z</time></trkpt><trkpt lat="38.15036899256794" lon="15.462660884546995"><ele>982.4999999999999</ele><time>2026-04-11T09:04:16Z</time></trkpt><trkpt lat="38.15028929096831" lon="15.462574361141145"><ele>982.0</ele><time>2026-04-11T09:04:18Z</time></trkpt><trkpt lat="38.150219668549795" lon="15.462562318981396"><ele>982.0</ele><time>2026-04-11T09:04:19Z</time></trkpt><trkpt lat="38.15012885941174" lon="15.462502345178962"><ele>982.0</ele><time>2026-04-11T09:04:21Z</time></trkpt><trkpt lat="38.15004126328722" lon="15.462441485633718"><ele>982.0</ele><time>2026-04-11T09:04:23Z</time></trkpt><trkpt lat="38.149960135263576" lon="15.462360775746264"><ele>982.0</ele><time>2026-04-11T09:04:25Z</time></trkpt><trkpt lat="38.14988783952551" lon="15.462251117569496"><ele>982.0</ele><time>2026-04-11T09:04:27Z</time></trkpt><trkpt lat="38.14983859973378" lon="15.462117030812687"><ele>981.6</ele><time>2026-04-11T09:04:29Z</time></trkpt><trkpt lat="38.14981169449647" lon="15.46203885564965"><ele>981.2</ele><time>2026-04-11T09:04:31Z</time></trkpt><trkpt lat="38.14976182233669" lon="15.461924254504785"><ele>980.8</ele><time>2026-04-11T09:04:33Z</time></trkpt><trkpt lat="38.14971203053425" lon="15.461809856167399"><ele>980.4</ele><time>2026-04-11T09:04:35Z</time></trkpt><trkpt lat="38.14962409465295" lon="15.461725428716951"><ele>980.0</ele><time>2026-04-11T09:04:37Z</time></trkpt><trkpt lat="38.14955177467002" lon="15.461659178342673"><ele>980.0000000000001</ele><time>2026-04-11T09:04:39Z</time></trkpt><trkpt lat="38.149477309574976" lon="15.461613894102557"><ele>980.0</ele><time>2026-04-11T09:04:41Z</time></trkpt><trkpt lat="38.14943406484664" lon="15.461540158640975"><ele>980.0</ele><time>2026-04-11T09:04:45Z</time></trkpt><trkpt lat="38.149361294750534" lon="15.461471717512083"><ele>980.0</ele><time>2026-04-11T09:09:48.001Z</time></trkpt><trkpt lat="38.14928700969469" lon="15.46143566759962"><ele>980.0000000000001</ele><time>2026-04-11T09:09:50.001Z</time></trkpt><trkpt lat="38.14919509337319" lon="15.461440130867894"><ele>980.0</ele><time>2026-04-11T09:09:52.001Z</time></trkpt><trkpt lat="38.14908686926091" lon="15.461443989932592"><ele>980.2</ele><time>2026-04-11T09:09:54.001Z</time></trkpt><trkpt lat="38.14899781216953" lon="15.461403721233083"><ele>980.4</ele><time>2026-04-11T09:09:56.001Z</time></trkpt><trkpt lat="38.14889737215088" lon="15.461393952043789"><ele>980.5999999999999</ele><time>2026-04-11T09:09:58.001Z</time></trkpt><trkpt lat="38.14877960812938" lon="15.461350821640986"><ele>980.8</ele><time>2026-04-11T09:10:00.001Z</time></trkpt><trkpt lat="38.14871063296904" lon="15.461332646359866"><ele>981.0</ele><time>2026-04-11T09:10:01.001Z</time></trkpt><trkpt lat="38.148632056992426" lon="15.461310078549603"><ele>979.5714285714287</ele><time>2026-04-11T09:10:02.001Z</time></trkpt><trkpt lat="38.148554347449625" lon="15.461255687325599"><ele>978.1428571428571</ele><time>2026-04-11T09:10:03.001Z</time></trkpt><trkpt lat="38.14848712117178" lon="15.461231667827835"><ele>976.7142857142858</ele><time>2026-04-11T09:10:04.001Z</time></trkpt><trkpt lat="38.148419014631756" lon="15.461213386977672"><ele>975.2857142857143</ele><time>2026-04-11T09:10:05.001Z</time></trkpt><trkpt lat="38.14834947421725" lon="15.461209691446372"><ele>973.8571428571429</ele><time>2026-04-11T09:10:06.001Z</time></trkpt><trkpt lat="38.14828693292746" lon="15.461248966692748"><ele>972.4285714285714</ele><time>2026-04-11T09:10:07.001Z</time></trkpt><trkpt lat="38.148223590161244" lon="15.461280694076056"><ele>971.0</ele><time>2026-04-11T09:10:08.001Z</time></trkpt><trkpt lat="38.14816633999849" lon="15.461319791543957"><ele>976.5000000000001</ele><time>2026-04-11T09:10:09.001Z</time></trkpt><trkpt lat="38.14811575684396" lon="15.461372843141781"><ele>982.0</ele><time>2026-04-11T09:10:10.001Z</time></trkpt><trkpt lat="38.14800833366445" lon="15.461452430822959"><ele>987.5</ele><time>2026-04-11T09:10:12.001Z</time></trkpt><trkpt lat="38.14793259762954" lon="15.461453222403547"><ele>993.0</ele><time>2026-04-11T09:10:13.001Z</time></trkpt><trkpt lat="38.147861622828984" lon="15.461474943693274"><ele>998.5000000000001</ele><time>2026-04-11T09:10:14.001Z</time></trkpt><trkpt lat="38.14778791017759" lon="15.461500426583319"><ele>1004.0</ele><time>2026-04-11T09:10:15.001Z</time></trkpt><trkpt lat="38.14772204706214" lon="15.46154017903159"><ele>1004.0000000000001</ele><time>2026-04-11T09:10:16.001Z</time></trkpt><trkpt lat="38.14767065032463" lon="15.461612245740044"><ele>1004.0</ele><time>2026-04-11T09:10:17.001Z</time></trkpt><trkpt lat="38.147623709720705" lon="15.461674603625315"><ele>1004.0</ele><time>2026-04-11T09:10:18.001Z</time></trkpt><trkpt lat="38.14757782171256" lon="15.461734142073967"><ele>1004.0</ele><time>2026-04-11T09:10:19.001Z</time></trkpt><trkpt lat="38.14749925073422" lon="15.461848253379392"><ele>1004.0000000000001</ele><time>2026-04-11T09:10:21.001Z</time></trkpt><trkpt lat="38.14744710299628" lon="15.46190251943053"><ele>1004.0</ele><time>2026-04-11T09:10:22.001Z</time></trkpt><trkpt lat="38.14740441836586" lon="15.461974893358956"><ele>1006.6666666666667</ele><time>2026-04-11T09:10:23.001Z</time></trkpt><trkpt lat="38.147360971101875" lon="15.46203968276146"><ele>1009.3333333333334</ele><time>2026-04-11T09:10:24.001Z</time></trkpt><trkpt lat="38.14731989827761" lon="15.462112222600343"><ele>1012.0</ele><time>2026-04-11T09:10:25.001Z</time></trkpt><trkpt lat="38.14724135907358" lon="15.462158541877647"><ele>1014.6666666666667</ele><time>2026-04-11T09:10:27.001Z</time></trkpt><trkpt lat="38.14712695135308" lon="15.462176195066233"><ele>1017.3333333333334</ele><time>2026-04-11T09:10:29.001Z</time></trkpt><trkpt lat="38.14705031494017" lon="15.462167111451933"><ele>1020.0</ele><time>2026-04-11T09:10:30.001Z</time></trkpt><trkpt lat="38.14697802302406" lon="15.462177687603058"><ele>1013.0</ele><time>2026-04-11T09:10:31.001Z</time></trkpt><trkpt lat="38.14691404378462" lon="15.462216308675382"><ele>1006.0</ele><time>2026-04-11T09:10:32.001Z</time></trkpt><trkpt lat="38.146858973717" lon="15.462275262262757"><ele>999.0</ele><time>2026-04-11T09:10:33.001Z</time></trkpt><trkpt lat="38.14679226829356" lon="15.462346143197761"><ele>992.0</ele><time>2026-04-11T09:10:34.001Z</time></trkpt><trkpt lat="38.14672300620793" lon="15.462405518665465"><ele>985.0</ele><time>2026-04-11T09:10:35.001Z</time></trkpt><trkpt lat="38.146644252220504" lon="15.462459474139763"><ele>978.0</ele><time>2026-04-11T09:10:36.001Z</time></trkpt><trkpt lat="38.14655804707348" lon="15.462509561244476"><ele>977.1666666666666</ele><time>2026-04-11T09:10:37.001Z</time></trkpt><trkpt lat="38.14647922482434" lon="15.462551856650645"><ele>976.3333333333333</ele><time>2026-04-11T09:10:38.001Z</time></trkpt><trkpt lat="38.14642012331404" lon="15.462603582729466"><ele>975.5</ele><time>2026-04-11T09:10:39.001Z</time></trkpt><trkpt lat="38.1463158420625" lon="15.462659625022802"><ele>974.6666666666666</ele><time>2026-04-11T09:10:41.001Z</time></trkpt><trkpt lat="38.14623084414952" lon="15.462640238451613"><ele>973.8333333333333</ele><time>2026-04-11T09:10:43.001Z</time></trkpt><trkpt lat="38.1461925358583" lon="15.46255460341926"><ele>973.0</ele><time>2026-04-11T09:10:45.001Z</time></trkpt><trkpt lat="38.14621101268852" lon="15.462468309288008"><ele>973.0</ele><time>2026-04-11T09:10:47.001Z</time></trkpt><trkpt lat="38.146254251199615" lon="15.462340505951627"><ele>973.0</ele><time>2026-04-11T09:10:49.001Z</time></trkpt><trkpt lat="38.146255778288456" lon="15.462250247505457"><ele>973.0</ele><time>2026-04-11T09:10:50.001Z</time></trkpt><trkpt lat="38.14626919162956" lon="15.462169717492817"><ele>973.0</ele><time>2026-04-11T09:10:51.001Z</time></trkpt><trkpt lat="38.146277346203135" lon="15.462039089932212"><ele>973.0</ele><time>2026-04-11T09:10:53.001Z</time></trkpt><trkpt lat="38.14617150606774" lon="15.461923474414174"><ele>975.4999999999999</ele><time>2026-04-11T09:10:55.001Z</time></trkpt><trkpt lat="38.14610831122226" lon="15.461875106785461"><ele>978.0</ele><time>2026-04-11T09:10:56.001Z</time></trkpt><trkpt lat="38.14603255597401" lon="15.461820334762205"><ele>980.5</ele><time>2026-04-11T09:10:57.001Z</time></trkpt><trkpt lat="38.14595735496121" lon="15.461775363368709"><ele>983.0</ele><time>2026-04-11T09:10:58.001Z</time></trkpt><trkpt lat="38.145879016220974" lon="15.461748221775583"><ele>985.4999999999999</ele><time>2026-04-11T09:10:59.001Z</time></trkpt><trkpt lat="38.14581248406745" lon="15.46174214791495"><ele>988.0</ele><time>2026-04-11T09:11:00.001Z</time></trkpt><trkpt lat="38.14570568332245" lon="15.461692018008677"><ele>987.9999999999999</ele><time>2026-04-11T09:11:02.001Z</time></trkpt><trkpt lat="38.14565523300035" lon="15.461615978774624"><ele>988.0</ele><time>2026-04-11T09:11:03.001Z</time></trkpt><trkpt lat="38.14560333869858" lon="15.461529730737897"><ele>988.0</ele><time>2026-04-11T09:11:04.001Z</time></trkpt><trkpt lat="38.14554419224938" lon="15.461436774739905"><ele>988.0</ele><time>2026-04-11T09:11:05.001Z</time></trkpt><trkpt lat="38.14549212888829" lon="15.461363444965414"><ele>987.9999999999999</ele><time>2026-04-11T09:11:06.001Z</time></trkpt><trkpt lat="38.14545071306949" lon="15.461292016781055"><ele>988.0</ele><time>2026-04-11T09:11:07.001Z</time></trkpt><trkpt lat="38.14541288578319" lon="15.461227018745372"><ele>992.8333333333333</ele><time>2026-04-11T09:11:08.001Z</time></trkpt><trkpt lat="38.14533404486446" lon="15.461135608104714"><ele>997.6666666666666</ele><time>2026-04-11T09:11:10.001Z</time></trkpt><trkpt lat="38.14524039257664" lon="15.461130043264413"><ele>1002.5</ele><time>2026-04-11T09:11:12.001Z</time></trkpt><trkpt lat="38.14517157511324" lon="15.461144784731497"><ele>1007.3333333333333</ele><time>2026-04-11T09:11:13.001Z</time></trkpt><trkpt lat="38.14508653636815" lon="15.46116917353262"><ele>1012.1666666666666</ele><time>2026-04-11T09:11:14.001Z</time></trkpt><trkpt lat="38.14499725306056" lon="15.461196810338683"><ele>1017.0</ele><time>2026-04-11T09:11:15.001Z</time></trkpt><trkpt lat="38.14493104421642" lon="15.46121987746854"><ele>1017.0</ele><time>2026-04-11T09:11:16.001Z</time></trkpt><trkpt lat="38.14482667092256" lon="15.46122408619862"><ele>1017.0</ele><time>2026-04-11T09:11:18Z</time></trkpt><trkpt lat="38.14473196856275" lon="15.461239641749659"><ele>1017.0</ele><time>2026-04-11T09:11:20Z</time></trkpt><trkpt lat="38.14463619051522" lon="15.46121041501152"><ele>1017.0</ele><time>2026-04-11T09:11:22Z</time></trkpt><trkpt lat="38.14456855070505" lon="15.461192980138886"><ele>1017.0</ele><time>2026-04-11T09:11:23Z</time></trkpt><trkpt lat="38.14444149583728" lon="15.461223211539993"><ele>1017.0</ele><time>2026-04-11T09:11:25Z</time></trkpt><trkpt lat="38.14436333995871" lon="15.461249919207884"><ele>1017.0</ele><time>2026-04-11T09:11:26Z</time></trkpt><trkpt lat="38.14427776599033" lon="15.461280266590697"><ele>1017.0</ele><time>2026-04-11T09:11:27Z</time></trkpt><trkpt lat="38.14419766820624" lon="15.461294835153835"><ele>1017.0</ele><time>2026-04-11T09:11:28Z</time></trkpt><trkpt lat="38.144115792392576" lon="15.46130041055616"><ele>1017.0</ele><time>2026-04-11T09:11:29Z</time></trkpt><trkpt lat="38.144044464332694" lon="15.461298998458348"><ele>1017.0</ele><time>2026-04-11T09:11:30.001Z</time></trkpt><trkpt lat="38.14396904458763" lon="15.461287629350888"><ele>1018.5</ele><time>2026-04-11T09:11:31.001Z</time></trkpt><trkpt lat="38.143889133116794" lon="15.461269153648425"><ele>1020.0</ele><time>2026-04-11T09:11:32.001Z</time></trkpt><trkpt lat="38.14380427551794" lon="15.461260478255657"><ele>1021.5</ele><time>2026-04-11T09:11:33.001Z</time></trkpt><trkpt lat="38.14373060136912" lon="15.46126429454081"><ele>1023.0</ele><time>2026-04-11T09:11:34.001Z</time></trkpt><trkpt lat="38.14360186829684" lon="15.461249823633564"><ele>1024.5</ele><time>2026-04-11T09:11:36.001Z</time></trkpt><trkpt lat="38.14353071975785" lon="15.461232886522257"><ele>1026.0</ele><time>2026-04-11T09:11:37.001Z</time></trkpt><trkpt lat="38.14345142852327" lon="15.461205966633267"><ele>1026.0000000000002</ele><time>2026-04-11T09:11:38.001Z</time></trkpt><trkpt lat="38.14337575097562" lon="15.461201723041071"><ele>1026.0</ele><time>2026-04-11T09:11:39.001Z</time></trkpt><trkpt lat="38.14329707464145" lon="15.461176732661373"><ele>1026.0</ele><time>2026-04-11T09:11:40.001Z</time></trkpt><trkpt lat="38.143222676456325" lon="15.461191571741228"><ele>1026.0</ele><time>2026-04-11T09:11:41.001Z</time></trkpt><trkpt lat="38.1431442544939" lon="15.461192463493028"><ele>1026.0</ele><time>2026-04-11T09:11:42.001Z</time></trkpt><trkpt lat="38.14308023920772" lon="15.461180090668378"><ele>1026.0000000000002</ele><time>2026-04-11T09:11:43.001Z</time></trkpt><trkpt lat="38.14301428326582" lon="15.461160018202587"><ele>1026.0</ele><time>2026-04-11T09:11:44.001Z</time></trkpt><trkpt lat="38.142894378247924" lon="15.461110089606354"><ele>1023.5714285714287</ele><time>2026-04-11T09:11:46.001Z</time></trkpt><trkpt lat="38.14283146225029" lon="15.461077181942171"><ele>1021.1428571428571</ele><time>2026-04-11T09:11:47.001Z</time></trkpt><trkpt lat="38.14277162224135" lon="15.46104232373025"><ele>1018.7142857142858</ele><time>2026-04-11T09:11:48.001Z</time></trkpt><trkpt lat="38.14270843322909" lon="15.461001542157641"><ele>1016.2857142857143</ele><time>2026-04-11T09:11:49.001Z</time></trkpt><trkpt lat="38.14264757879428" lon="15.460954958085738"><ele>1013.8571428571429</ele><time>2026-04-11T09:11:50.001Z</time></trkpt><trkpt lat="38.14261309349966" lon="15.460881908799504"><ele>1011.4285714285714</ele><time>2026-04-11T09:11:51.001Z</time></trkpt><trkpt lat="38.142568989495565" lon="15.460786992709686"><ele>1009.0</ele><time>2026-04-11T09:11:52.001Z</time></trkpt><trkpt lat="38.14251005652843" lon="15.460688426424351"><ele>1009.0</ele><time>2026-04-11T09:11:53.001Z</time></trkpt><trkpt lat="38.14246614868116" lon="15.46061012407458"><ele>1009.0</ele><time>2026-04-11T09:11:54.001Z</time></trkpt><trkpt lat="38.1424238828051" lon="15.460529228675512"><ele>1009.0</ele><time>2026-04-11T09:11:55.001Z</time></trkpt><trkpt lat="38.1423805437683" lon="15.460465874315563"><ele>1009.0</ele><time>2026-04-11T09:11:56.001Z</time></trkpt><trkpt lat="38.14232955662184" lon="15.460414502708534"><ele>1009.0</ele><time>2026-04-11T09:11:57.001Z</time></trkpt><trkpt lat="38.142260886048014" lon="15.460382138239805"><ele>1009.0</ele><time>2026-04-11T09:11:58.001Z</time></trkpt><trkpt lat="38.14219908010424" lon="15.460364460854457"><ele>1009.0</ele><time>2026-04-11T09:11:59.001Z</time></trkpt><trkpt lat="38.142091672647155" lon="15.460271907372535"><ele>1008.75</ele><time>2026-04-11T09:12:01.001Z</time></trkpt><trkpt lat="38.141991290356124" lon="15.460195295825558"><ele>1008.5</ele><time>2026-04-11T09:12:03.001Z</time></trkpt><trkpt lat="38.14189309299466" lon="15.46013707447976"><ele>1008.25</ele><time>2026-04-11T09:12:05.001Z</time></trkpt><trkpt lat="38.14184134428554" lon="15.46008330759708"><ele>1008.0</ele><time>2026-04-11T09:12:06.001Z</time></trkpt><trkpt lat="38.14170518460374" lon="15.459952221288843"><ele>1008.0</ele><time>2026-04-11T09:12:08.001Z</time></trkpt><trkpt lat="38.14163671435005" lon="15.459846667930838"><ele>1008.0</ele><time>2026-04-11T09:12:10.001Z</time></trkpt><trkpt lat="38.1416207339814" lon="15.459721381858184"><ele>1008.0</ele><time>2026-04-11T09:12:12.001Z</time></trkpt><trkpt lat="38.14164303597667" lon="15.459568218111356"><ele>1008.0</ele><time>2026-04-11T09:12:14.001Z</time></trkpt><trkpt lat="38.14164346414378" lon="15.459482198435188"><ele>1008.0</ele><time>2026-04-11T09:12:15.001Z</time></trkpt><trkpt lat="38.14164346414283" lon="15.459395459385558"><ele>1007.8</ele><time>2026-04-11T09:12:16.001Z</time></trkpt><trkpt lat="38.14163956054436" lon="15.459296237378446"><ele>1007.5999999999999</ele><time>2026-04-11T09:12:17.001Z</time></trkpt><trkpt lat="38.14160870797717" lon="15.459134983864725"><ele>1007.4000000000001</ele><time>2026-04-11T09:12:19.001Z</time></trkpt><trkpt lat="38.14156247716393" lon="15.459069027527386"><ele>1007.2</ele><time>2026-04-11T09:12:20.001Z</time></trkpt><trkpt lat="38.14150176885243" lon="15.458954088630584"><ele>1007.0</ele><time>2026-04-11T09:12:22.001Z</time></trkpt><trkpt lat="38.14140972583146" lon="15.458863416546668"><ele>1005.75</ele><time>2026-04-11T09:12:24.001Z</time></trkpt><trkpt lat="38.141296547336154" lon="15.458785638335096"><ele>1004.5</ele><time>2026-04-11T09:12:26.001Z</time></trkpt><trkpt lat="38.14120559006654" lon="15.458678446696261"><ele>1003.25</ele><time>2026-04-11T09:12:28.001Z</time></trkpt><trkpt lat="38.14114603549016" lon="15.458646650615135"><ele>1002.0</ele><time>2026-04-11T09:12:29.001Z</time></trkpt><trkpt lat="38.14102680052941" lon="15.458567251761714"><ele>1002.0</ele><time>2026-04-11T09:12:31.001Z</time></trkpt><trkpt lat="38.140937300653626" lon="15.458514868128896"><ele>1002.0</ele><time>2026-04-11T09:12:33.001Z</time></trkpt><trkpt lat="38.14083846213394" lon="15.458464489112444"><ele>1002.0</ele><time>2026-04-11T09:12:35.001Z</time></trkpt><trkpt lat="38.14074508610962" lon="15.458376842634689"><ele>1002.0</ele><time>2026-04-11T09:12:37.001Z</time></trkpt><trkpt lat="38.14068244633889" lon="15.45832584518892"><ele>1002.0</ele><time>2026-04-11T09:12:38.001Z</time></trkpt><trkpt lat="38.14061939276342" lon="15.45825992748089"><ele>1002.8571428571429</ele><time>2026-04-11T09:12:39.001Z</time></trkpt><trkpt lat="38.14055997574361" lon="15.45820552180838"><ele>1003.7142857142857</ele><time>2026-04-11T09:12:40.001Z</time></trkpt><trkpt lat="38.14050787345585" lon="15.458146640330524"><ele>1004.5714285714286</ele><time>2026-04-11T09:12:41.001Z</time></trkpt><trkpt lat="38.14046187885964" lon="15.458083994761257"><ele>1005.4285714285714</ele><time>2026-04-11T09:12:42.001Z</time></trkpt><trkpt lat="38.14043449411233" lon="15.457988683975755"><ele>1006.2857142857142</ele><time>2026-04-11T09:12:43.001Z</time></trkpt><trkpt lat="38.14037802455305" lon="15.457934047334303"><ele>1007.1428571428571</ele><time>2026-04-11T09:12:44.001Z</time></trkpt><trkpt lat="38.14033303799747" lon="15.45785931990218"><ele>1008.0</ele><time>2026-04-11T09:12:45.001Z</time></trkpt><trkpt lat="38.14028413583854" lon="15.45780105335867"><ele>1008.0</ele><time>2026-04-11T09:12:46.001Z</time></trkpt><trkpt lat="38.140229350744626" lon="15.457748056323327"><ele>1008.0</ele><time>2026-04-11T09:12:47.001Z</time></trkpt><trkpt lat="38.140151310045695" lon="15.457670571162785"><ele>1008.0</ele><time>2026-04-11T09:12:49.001Z</time></trkpt><trkpt lat="38.14011210088777" lon="15.45753476516415"><ele>1008.0</ele><time>2026-04-11T09:12:51.001Z</time></trkpt><trkpt lat="38.14008561033681" lon="15.45738699668988"><ele>1008.0</ele><time>2026-04-11T09:12:53.001Z</time></trkpt><trkpt lat="38.14003400273776" lon="15.457302771147821"><ele>1008.0</ele><time>2026-04-11T09:12:55.001Z</time></trkpt><trkpt lat="38.13993724256878" lon="15.457267393918249"><ele>1008.0</ele><time>2026-04-11T09:12:57.001Z</time></trkpt><trkpt lat="38.139823118909284" lon="15.457251102967303"><ele>1008.0</ele><time>2026-04-11T09:12:59.001Z</time></trkpt><trkpt lat="38.13975917714663" lon="15.457244972712525"><ele>1008.0</ele><time>2026-04-11T09:13:00.001Z</time></trkpt><trkpt lat="38.13966908496222" lon="15.457193298806297"><ele>1008.0</ele><time>2026-04-11T09:13:02.001Z</time></trkpt><trkpt lat="38.13963996044609" lon="15.457070251622234"><ele>1014.0</ele><time>2026-04-11T09:13:04.001Z</time></trkpt><trkpt lat="38.13963475755485" lon="15.456959439345916"><ele>1020.0</ele><time>2026-04-11T09:13:08Z</time></trkpt><trkpt lat="38.13958801123145" lon="15.456852824294119"><ele>1026.0</ele><time>2026-04-11T09:13:10Z</time></trkpt><trkpt lat="38.13953682533796" lon="15.456736825131147"><ele>1032.0</ele><time>2026-04-11T09:13:12Z</time></trkpt><trkpt lat="38.13945661671731" lon="15.45666790426063"><ele>1038.0</ele><time>2026-04-11T09:13:14Z</time></trkpt><trkpt lat="38.139374382044714" lon="15.456663500816779"><ele>1038.0</ele><time>2026-04-11T09:13:16Z</time></trkpt><trkpt lat="38.13929018680902" lon="15.45665270282506"><ele>1038.0</ele><time>2026-04-11T09:13:18Z</time></trkpt><trkpt lat="38.139220758684495" lon="15.456664996253627"><ele>1038.0</ele><time>2026-04-11T09:13:19Z</time></trkpt><trkpt lat="38.13910933417442" lon="15.456721698066344"><ele>1038.0</ele><time>2026-04-11T09:13:21Z</time></trkpt><trkpt lat="38.13902041447507" lon="15.456800361225747"><ele>1038.0</ele><time>2026-04-11T09:13:23Z</time></trkpt><trkpt lat="38.138945784956164" lon="15.456896294037989"><ele>1038.2857142857142</ele><time>2026-04-11T09:13:25Z</time></trkpt><trkpt lat="38.13889709330611" lon="15.456959483008271"><ele>1038.5714285714284</ele><time>2026-04-11T09:20:44Z</time></trkpt><trkpt lat="38.13883840460811" lon="15.456998303171162"><ele>1038.857142857143</ele><time>2026-04-11T09:20:47Z</time></trkpt><trkpt lat="38.1387649632988" lon="15.457049874147481"><ele>1039.142857142857</ele><time>2026-04-11T09:20:50Z</time></trkpt><trkpt lat="38.13868199902281" lon="15.457072654192013"><ele>1039.4285714285716</ele><time>2026-04-11T09:20:53Z</time></trkpt><trkpt lat="38.1386114442249" lon="15.457064698755376"><ele>1039.7142857142858</ele><time>2026-04-11T09:20:55Z</time></trkpt><trkpt lat="38.13855276426829" lon="15.457028632196659"><ele>1040.0</ele><time>2026-04-11T09:21:34Z</time></trkpt><trkpt lat="38.138497699958336" lon="15.456972869268672"><ele>1040.0</ele><time>2026-04-11T09:21:42Z</time></trkpt><trkpt lat="38.138431803531994" lon="15.45694736496208"><ele>1040.0</ele><time>2026-04-11T09:21:46Z</time></trkpt><trkpt lat="38.13837614980381" lon="15.456885327520892"><ele>1040.0</ele><time>2026-04-11T09:21:49Z</time></trkpt><trkpt lat="38.13830749455297" lon="15.45686897553283"><ele>1040.0</ele><time>2026-04-11T09:21:52Z</time></trkpt><trkpt lat="38.13824306989716" lon="15.456833474085544"><ele>1040.0</ele><time>2026-04-11T09:21:54Z</time></trkpt><trkpt lat="38.138165021844806" lon="15.456821598293539"><ele>1040.0</ele><time>2026-04-11T09:21:56Z</time></trkpt><trkpt lat="38.13807443217824" lon="15.45678806581006"><ele>1038.3333333333335</ele><time>2026-04-11T09:21:58Z</time></trkpt><trkpt lat="38.137986792463096" lon="15.456777970488998"><ele>1036.6666666666667</ele><time>2026-04-11T09:22:00Z</time></trkpt><trkpt lat="38.13791844432157" lon="15.45677356620328"><ele>1035.0</ele><time>2026-04-11T09:22:01Z</time></trkpt><trkpt lat="38.13781901005743" lon="15.456773637233798"><ele>1033.3333333333333</ele><time>2026-04-11T09:22:03Z</time></trkpt><trkpt lat="38.13774010399009" lon="15.456776481207905"><ele>1031.6666666666665</ele><time>2026-04-11T09:22:07Z</time></trkpt><trkpt lat="38.13773690605384" lon="15.456875130944733"><ele>1030.0</ele><time>2026-04-11T09:29:25Z</time></trkpt><trkpt lat="38.13766308226525" lon="15.456843829785623"><ele>1030.0</ele><time>2026-04-11T09:35:30Z</time></trkpt><trkpt lat="38.137570528174706" lon="15.456840676902985"><ele>1030.0</ele><time>2026-04-11T09:35:33Z</time></trkpt><trkpt lat="38.13748633614892" lon="15.456843789447806"><ele>1030.0</ele><time>2026-04-11T09:35:36Z</time></trkpt><trkpt lat="38.1374022242437" lon="15.456883072399144"><ele>1030.0</ele><time>2026-04-11T09:35:39Z</time></trkpt><trkpt lat="38.13733922483581" lon="15.456947209893322"><ele>1030.0</ele><time>2026-04-11T09:35:41Z</time></trkpt><trkpt lat="38.137257205064806" lon="15.456976316016751"><ele>1030.0</ele><time>2026-04-11T09:35:43Z</time></trkpt><trkpt lat="38.13720366834776" lon="15.457042536170166"><ele>1030.3333333333333</ele><time>2026-04-11T09:35:45Z</time></trkpt><trkpt lat="38.13714481882759" lon="15.45712078338062"><ele>1030.6666666666665</ele><time>2026-04-11T09:35:47Z</time></trkpt><trkpt lat="38.13710912068342" lon="15.457237461899028"><ele>1031.0</ele><time>2026-04-11T09:35:49Z</time></trkpt><trkpt lat="38.137092699800206" lon="15.457355780141585"><ele>1031.3333333333333</ele><time>2026-04-11T09:35:52Z</time></trkpt><trkpt lat="38.13709080713454" lon="15.457451836155991"><ele>1031.6666666666667</ele><time>2026-04-11T09:35:58.999Z</time></trkpt><trkpt lat="38.13707764131163" lon="15.45753203744243"><ele>1032.0</ele><time>2026-04-11T09:36:03.999Z</time></trkpt><trkpt lat="38.13696134472983" lon="15.45754760831939"><ele>1032.0</ele><time>2026-04-11T09:36:11.999Z</time></trkpt><trkpt lat="38.13688399736794" lon="15.457538396987456"><ele>1032.0</ele><time>2026-04-11T09:36:15.999Z</time></trkpt><trkpt lat="38.13681610525431" lon="15.457539851879222"><ele>1032.0</ele><time>2026-04-11T09:36:20.999Z</time></trkpt><trkpt lat="38.136740922258014" lon="15.457544226072514"><ele>1032.0</ele><time>2026-04-11T09:36:24.999Z</time></trkpt><trkpt lat="38.13664979117471" lon="15.457523625860865"><ele>1032.0</ele><time>2026-04-11T09:36:26.999Z</time></trkpt><trkpt lat="38.136564586050305" lon="15.457520250025132"><ele>1032.0</ele><time>2026-04-11T09:36:28.999Z</time></trkpt><trkpt lat="38.136497138743124" lon="15.457580614133558"><ele>1026.0</ele><time>2026-04-11T09:36:30.999Z</time></trkpt><trkpt lat="38.13641465385439" lon="15.457684110034695"><ele>1020.0</ele><time>2026-04-11T09:36:32.999Z</time></trkpt><trkpt lat="38.13638170049525" lon="15.457771523467326"><ele>1014.0</ele><time>2026-04-11T09:36:33.999Z</time></trkpt><trkpt lat="38.13633215742617" lon="15.457830432054381"><ele>1008.0</ele><time>2026-04-11T09:36:35.999Z</time></trkpt><trkpt lat="38.13627642795459" lon="15.457923910618568"><ele>1002.0</ele><time>2026-04-11T09:36:37.999Z</time></trkpt><trkpt lat="38.136213371359666" lon="15.458019325641128"><ele>1001.5</ele><time>2026-04-11T09:36:40.999Z</time></trkpt><trkpt lat="38.1361498410292" lon="15.458115373689468"><ele>1001.0</ele><time>2026-04-11T09:36:44Z</time></trkpt><trkpt lat="38.136095263015314" lon="15.4582012837417"><ele>1000.5</ele><time>2026-04-11T09:36:46Z</time></trkpt><trkpt lat="38.136049140316764" lon="15.45828569256434"><ele>1000.0</ele><time>2026-04-11T09:36:48Z</time></trkpt><trkpt lat="38.13601057047982" lon="15.458396894213266"><ele>999.5</ele><time>2026-04-11T09:36:50Z</time></trkpt><trkpt lat="38.136002795974875" lon="15.458492992535426"><ele>999.0</ele><time>2026-04-11T09:36:52Z</time></trkpt><trkpt lat="38.135991693462095" lon="15.458575511850244"><ele>999.0</ele><time>2026-04-11T09:36:55Z</time></trkpt><trkpt lat="38.1359349475393" lon="15.458613920105938"><ele>999.0000000000001</ele><time>2026-04-11T09:36:59Z</time></trkpt><trkpt lat="38.13588837383134" lon="15.458552226556288"><ele>999.0</ele><time>2026-04-11T09:37:03Z</time></trkpt><trkpt lat="38.1358755670956" lon="15.458466378833275"><ele>999.0</ele><time>2026-04-11T09:37:05Z</time></trkpt><trkpt lat="38.13587615993577" lon="15.458370925856896"><ele>999.0000000000001</ele><time>2026-04-11T09:37:07Z</time></trkpt><trkpt lat="38.135885707532154" lon="15.458276399097144"><ele>999.0</ele><time>2026-04-11T09:37:10Z</time></trkpt><trkpt lat="38.135899779451414" lon="15.458195191140966"><ele>999.0</ele><time>2026-04-11T09:37:15Z</time></trkpt><trkpt lat="38.135915749331105" lon="15.458097670217354"><ele>999.0</ele><time>2026-04-11T09:37:20Z</time></trkpt><trkpt lat="38.13591457134792" lon="15.4580143557223"><ele>999.0</ele><time>2026-04-11T09:37:22Z</time></trkpt><trkpt lat="38.135925570325256" lon="15.457934202531122"><ele>999.0</ele><time>2026-04-11T09:37:24Z</time></trkpt><trkpt lat="38.135928001406526" lon="15.457830252712577"><ele>999.0</ele><time>2026-04-11T09:37:26Z</time></trkpt><trkpt lat="38.13594191344437" lon="15.457707620241148"><ele>999.0</ele><time>2026-04-11T09:37:28Z</time></trkpt><trkpt lat="38.13594406154055" lon="15.457624734822698"><ele>999.0</ele><time>2026-04-11T09:37:30Z</time></trkpt><trkpt lat="38.135954299486656" lon="15.457516261340261"><ele>999.4285714285714</ele><time>2026-04-11T09:37:32Z</time></trkpt><trkpt lat="38.135962975766034" lon="15.457427868225396"><ele>999.8571428571429</ele><time>2026-04-11T09:37:34Z</time></trkpt><trkpt lat="38.13596642675755" lon="15.45733569020818"><ele>1000.2857142857143</ele><time>2026-04-11T09:40:51Z</time></trkpt><trkpt lat="38.13595230529178" lon="15.457415779131098"><ele>1000.7142857142858</ele><time>2026-04-11T09:44:47Z</time></trkpt><trkpt lat="38.135949326410454" lon="15.457500727015148"><ele>1001.1428571428571</ele><time>2026-04-11T09:44:51Z</time></trkpt><trkpt lat="38.135947648705574" lon="15.457589565289313"><ele>1001.5714285714287</ele><time>2026-04-11T09:44:55Z</time></trkpt><trkpt lat="38.13594372904424" lon="15.457676005590335"><ele>1002.0</ele><time>2026-04-11T09:44:58Z</time></trkpt><trkpt lat="38.13593149057145" lon="15.457801746708764"><ele>1002.0</ele><time>2026-04-11T09:45:01Z</time></trkpt><trkpt lat="38.135902735505134" lon="15.45788236856122"><ele>1002.0</ele><time>2026-04-11T09:45:03Z</time></trkpt><trkpt lat="38.135895577456274" lon="15.457970732530262"><ele>1002.0</ele><time>2026-04-11T09:45:08Z</time></trkpt><trkpt lat="38.135902821459645" lon="15.458057077593274"><ele>1002.0</ele><time>2026-04-11T09:45:13Z</time></trkpt><trkpt lat="38.135893960189904" lon="15.458141985260987"><ele>1002.0</ele><time>2026-04-11T09:45:17.001Z</time></trkpt><trkpt lat="38.13588807590495" lon="15.45822250032504"><ele>1002.0</ele><time>2026-04-11T09:45:21.001Z</time></trkpt><trkpt lat="38.13586320723187" lon="15.458300843685269"><ele>1002.0</ele><time>2026-04-11T09:45:25.001Z</time></trkpt><trkpt lat="38.13585377482391" lon="15.458409431489995"><ele>1001.5</ele><time>2026-04-11T09:45:29.001Z</time></trkpt><trkpt lat="38.13585861494493" lon="15.458513189258626"><ele>1001.0</ele><time>2026-04-11T09:45:32.001Z</time></trkpt><trkpt lat="38.13589400537319" lon="15.458626576195293"><ele>1000.5</ele><time>2026-04-11T09:45:35.001Z</time></trkpt><trkpt lat="38.135958170238645" lon="15.45866589278154"><ele>1000.0</ele><time>2026-04-11T09:45:37.001Z</time></trkpt><trkpt lat="38.13602679490646" lon="15.458634061367738"><ele>999.5</ele><time>2026-04-11T09:45:39.001Z</time></trkpt><trkpt lat="38.13604826979887" lon="15.458543486387178"><ele>999.0</ele><time>2026-04-11T09:45:41.001Z</time></trkpt><trkpt lat="38.13602808933684" lon="15.458446363549683"><ele>999.0</ele><time>2026-04-11T09:45:44.001Z</time></trkpt><trkpt lat="38.136038043298214" lon="15.458355053311651"><ele>999.0000000000001</ele><time>2026-04-11T09:45:46.001Z</time></trkpt><trkpt lat="38.13608714302264" lon="15.458272603937626"><ele>999.0</ele><time>2026-04-11T09:45:49.001Z</time></trkpt><trkpt lat="38.13612844139411" lon="15.458208284165458"><ele>999.0</ele><time>2026-04-11T09:45:51.001Z</time></trkpt><trkpt lat="38.13616481018816" lon="15.458134133308738"><ele>999.0000000000001</ele><time>2026-04-11T09:45:53.001Z</time></trkpt><trkpt lat="38.136210982207345" lon="15.458059250052518"><ele>999.0</ele><time>2026-04-11T09:45:55.001Z</time></trkpt><trkpt lat="38.136264462306706" lon="15.458006211530387"><ele>999.0</ele><time>2026-04-11T09:45:57.001Z</time></trkpt><trkpt lat="38.136327510756196" lon="15.457920236593036"><ele>999.5</ele><time>2026-04-11T09:46:00.001Z</time></trkpt><trkpt lat="38.136371064429085" lon="15.457817385978418"><ele>1000.0</ele><time>2026-04-11T09:46:02.001Z</time></trkpt><trkpt lat="38.13642337636498" lon="15.457725120230267"><ele>1000.5</ele><time>2026-04-11T09:46:04.001Z</time></trkpt><trkpt lat="38.1364662491873" lon="15.45766577841353"><ele>1001.0</ele><time>2026-04-11T09:46:06.001Z</time></trkpt><trkpt lat="38.13652551728538" lon="15.457607991195317"><ele>1001.5</ele><time>2026-04-11T09:46:09.001Z</time></trkpt><trkpt lat="38.13658518786152" lon="15.457556746778225"><ele>1002.0</ele><time>2026-04-11T09:46:12.001Z</time></trkpt><trkpt lat="38.13667417887149" lon="15.457567845097296"><ele>1006.2857142857143</ele><time>2026-04-11T09:46:15.001Z</time></trkpt><trkpt lat="38.13673742440096" lon="15.45756783420089"><ele>1010.5714285714284</ele><time>2026-04-11T09:46:17.002Z</time></trkpt><trkpt lat="38.13681250106064" lon="15.457591169041434"><ele>1014.8571428571428</ele><time>2026-04-11T09:46:28Z</time></trkpt><trkpt lat="38.13688498153535" lon="15.457596227572042"><ele>1019.1428571428571</ele><time>2026-04-11T09:46:32Z</time></trkpt><trkpt lat="38.13695130446668" lon="15.457598277517716"><ele>1023.4285714285713</ele><time>2026-04-11T09:46:34Z</time></trkpt><trkpt lat="38.13702262865793" lon="15.4575959981435"><ele>1027.7142857142856</ele><time>2026-04-11T09:46:44Z</time></trkpt><trkpt lat="38.137086542532224" lon="15.45758525085778"><ele>1032.0</ele><time>2026-04-11T09:46:51Z</time></trkpt><trkpt lat="38.13711836423595" lon="15.45743310835767"><ele>1031.9999999999998</ele><time>2026-04-11T09:47:24.001Z</time></trkpt><trkpt lat="38.137112312715004" lon="15.457342566094983"><ele>1032.0</ele><time>2026-04-11T09:47:28.001Z</time></trkpt><trkpt lat="38.137135285335155" lon="15.457249247343979"><ele>1032.0</ele><time>2026-04-11T09:47:31.001Z</time></trkpt><trkpt lat="38.13717131269196" lon="15.457147114502318"><ele>1032.0</ele><time>2026-04-11T09:47:34.001Z</time></trkpt><trkpt lat="38.137232658478375" lon="15.45710141169598"><ele>1032.0</ele><time>2026-04-11T09:47:36.001Z</time></trkpt><trkpt lat="38.13729525684509" lon="15.457042052106933"><ele>1031.9999999999998</ele><time>2026-04-11T09:47:38.001Z</time></trkpt><trkpt lat="38.13733566938835" lon="15.456980358857415"><ele>1032.0</ele><time>2026-04-11T09:49:52.001Z</time></trkpt><trkpt lat="38.1373826233717" lon="15.456907390755044"><ele>1031.6666666666667</ele><time>2026-04-11T09:49:57.001Z</time></trkpt><trkpt lat="38.13744491218691" lon="15.456864556145618"><ele>1031.3333333333333</ele><time>2026-04-11T09:50:00.001Z</time></trkpt><trkpt lat="38.137510607587764" lon="15.456842772707168"><ele>1031.0</ele><time>2026-04-11T09:50:02.001Z</time></trkpt><trkpt lat="38.1376027912695" lon="15.45685364702927"><ele>1030.6666666666665</ele><time>2026-04-11T09:50:05.002Z</time></trkpt><trkpt lat="38.13770686996929" lon="15.456853300818642"><ele>1030.3333333333333</ele><time>2026-04-11T09:50:08.002Z</time></trkpt><trkpt lat="38.13777781025414" lon="15.456825176012222"><ele>1030.0</ele><time>2026-04-11T09:50:11.002Z</time></trkpt><trkpt lat="38.13786608916491" lon="15.456800377376824"><ele>1030.0</ele><time>2026-04-11T09:50:31.002Z</time></trkpt><trkpt lat="38.137952556274996" lon="15.45681729557979"><ele>1030.0</ele><time>2026-04-11T09:50:34.002Z</time></trkpt><trkpt lat="38.13803075020732" lon="15.45680459371818"><ele>1030.0</ele><time>2026-04-11T09:50:37.002Z</time></trkpt><trkpt lat="38.13811331120586" lon="15.456839289374297"><ele>1030.0</ele><time>2026-04-11T09:50:41Z</time></trkpt><trkpt lat="38.13817910654503" lon="15.456841133451032"><ele>1030.0</ele><time>2026-04-11T09:50:44Z</time></trkpt><trkpt lat="38.1382482242415" lon="15.456871323466194"><ele>1030.0</ele><time>2026-04-11T09:50:51Z</time></trkpt><trkpt lat="38.13831965451553" lon="15.456899299628372"><ele>1031.4285714285716</ele><time>2026-04-11T09:50:57Z</time></trkpt><trkpt lat="38.13838221887194" lon="15.456937151457327"><ele>1032.857142857143</ele><time>2026-04-11T09:51:02Z</time></trkpt><trkpt lat="38.138438080444594" lon="15.456977428848331"><ele>1034.2857142857142</ele><time>2026-04-11T09:51:08.999Z</time></trkpt><trkpt lat="38.13849538450273" lon="15.457020101042728"><ele>1035.7142857142858</ele><time>2026-04-11T09:51:16Z</time></trkpt><trkpt lat="38.138558775060815" lon="15.457063542802622"><ele>1037.142857142857</ele><time>2026-04-11T09:51:23Z</time></trkpt><trkpt lat="38.13861966067387" lon="15.45708531740194"><ele>1038.5714285714287</ele><time>2026-04-11T09:51:27Z</time></trkpt><trkpt lat="38.1386894695723" lon="15.457101857147455"><ele>1040.0</ele><time>2026-04-11T09:51:33Z</time></trkpt><trkpt lat="38.13875809792536" lon="15.457081988072755"><ele>1040.0</ele><time>2026-04-11T09:51:38Z</time></trkpt><trkpt lat="38.138822336053416" lon="15.457041503665542"><ele>1040.0</ele><time>2026-04-11T09:51:42Z</time></trkpt><trkpt lat="38.138886634250255" lon="15.456984384212646"><ele>1040.0</ele><time>2026-04-11T09:51:46Z</time></trkpt><trkpt lat="38.13895490146783" lon="15.456917913427832"><ele>1040.0</ele><time>2026-04-11T09:51:49Z</time></trkpt><trkpt lat="38.13901401844956" lon="15.456835870288636"><ele>1040.0</ele><time>2026-04-11T09:51:55Z</time></trkpt><trkpt lat="38.13907330999089" lon="15.456803126698517"><ele>1040.0</ele><time>2026-04-11T09:52:00.001Z</time></trkpt><trkpt lat="38.13913247606253" lon="15.45675270264986"><ele>1039.7142857142858</ele><time>2026-04-11T09:52:03.001Z</time></trkpt><trkpt lat="38.139181953225375" lon="15.45669997175094"><ele>1039.4285714285716</ele><time>2026-04-11T09:52:07.001Z</time></trkpt><trkpt lat="38.13925165569851" lon="15.456699052479445"><ele>1039.142857142857</ele><time>2026-04-11T09:52:11.001Z</time></trkpt><trkpt lat="38.139316721780425" lon="15.456694299452648"><ele>1038.857142857143</ele><time>2026-04-11T09:52:16.001Z</time></trkpt><trkpt lat="38.13937957357738" lon="15.456701004787169"><ele>1038.5714285714284</ele><time>2026-04-11T09:52:20.001Z</time></trkpt><trkpt lat="38.13945219848702" lon="15.456719873300088"><ele>1038.2857142857142</ele><time>2026-04-11T09:52:25.001Z</time></trkpt><trkpt lat="38.13951650746206" lon="15.45675192237842"><ele>1038.0</ele><time>2026-04-11T09:52:29.001Z</time></trkpt><trkpt lat="38.139566052910055" lon="15.456834904561685"><ele>1038.0</ele><time>2026-04-11T09:52:34.001Z</time></trkpt><trkpt lat="38.13958147167275" lon="15.45692582926405"><ele>1038.0</ele><time>2026-04-11T09:52:38.001Z</time></trkpt><trkpt lat="38.13960085594231" lon="15.457015357100206"><ele>1038.0</ele><time>2026-04-11T09:52:43.001Z</time></trkpt><trkpt lat="38.13962056549921" lon="15.457096843228697"><ele>1038.0</ele><time>2026-04-11T09:52:46.999Z</time></trkpt><trkpt lat="38.13964940554012" lon="15.457185252037643"><ele>1038.0</ele><time>2026-04-11T09:52:49.999Z</time></trkpt><trkpt lat="38.139715827428425" lon="15.457275912935945"><ele>1038.0</ele><time>2026-04-11T09:52:51.999Z</time></trkpt><trkpt lat="38.13979776237048" lon="15.457321988404445"><ele>1033.7142857142858</ele><time>2026-04-11T09:52:53.999Z</time></trkpt><trkpt lat="38.13988562183647" lon="15.457316789590099"><ele>1029.4285714285713</ele><time>2026-04-11T09:52:55.999Z</time></trkpt><trkpt lat="38.13995186531713" lon="15.457321084735016"><ele>1025.142857142857</ele><time>2026-04-11T09:52:57.999Z</time></trkpt><trkpt lat="38.14001661043032" lon="15.457344900421171"><ele>1020.8571428571429</ele><time>2026-04-11T09:53:00.999Z</time></trkpt><trkpt lat="38.14006618847259" lon="15.457422895304633"><ele>1016.5714285714286</ele><time>2026-04-11T09:53:05.999Z</time></trkpt><trkpt lat="38.14008607837829" lon="15.45750451775324"><ele>1012.2857142857142</ele><time>2026-04-11T09:53:08.999Z</time></trkpt><trkpt lat="38.140112271526704" lon="15.457602469516463"><ele>1008.0</ele><time>2026-04-11T09:53:11.999Z</time></trkpt><trkpt lat="38.14015105349346" lon="15.457707929853965"><ele>1008.0</ele><time>2026-04-11T09:53:14.999Z</time></trkpt><trkpt lat="38.14020048737314" lon="15.457768135224342"><ele>1008.0</ele><time>2026-04-11T09:53:16.999Z</time></trkpt><trkpt lat="38.14025333887836" lon="15.457812229727454"><ele>1008.0</ele><time>2026-04-11T09:53:18.999Z</time></trkpt><trkpt lat="38.140300587564724" lon="15.457869158409235"><ele>1008.0</ele><time>2026-04-11T09:53:21Z</time></trkpt><trkpt lat="38.14034712244631" lon="15.457927637450185"><ele>1008.0</ele><time>2026-04-11T09:53:23Z</time></trkpt><trkpt lat="38.14039763340551" lon="15.457997033945245"><ele>1008.0</ele><time>2026-04-11T09:53:25Z</time></trkpt><trkpt lat="38.14044569289001" lon="15.458088649172081"><ele>1008.0</ele><time>2026-04-11T09:53:27Z</time></trkpt><trkpt lat="38.140499923694186" lon="15.458176209649412"><ele>1006.8</ele><time>2026-04-11T09:53:29Z</time></trkpt><trkpt lat="38.14058096301308" lon="15.458263086504878"><ele>1005.5999999999999</ele><time>2026-04-11T09:53:31Z</time></trkpt><trkpt lat="38.14065379342474" lon="15.458338810001267"><ele>1004.4000000000001</ele><time>2026-04-11T09:53:33Z</time></trkpt><trkpt lat="38.140716576042536" lon="15.45840246184459"><ele>1003.2</ele><time>2026-04-11T09:53:35Z</time></trkpt><trkpt lat="38.1407954331836" lon="15.458475388885704"><ele>1002.0</ele><time>2026-04-11T09:53:37Z</time></trkpt><trkpt lat="38.1408816104109" lon="15.458536366000953"><ele>1002.0</ele><time>2026-04-11T09:53:39Z</time></trkpt><trkpt lat="38.14099478314606" lon="15.458580659460747"><ele>1002.0</ele><time>2026-04-11T09:53:41Z</time></trkpt><trkpt lat="38.14110577128362" lon="15.458643608278992"><ele>1002.0</ele><time>2026-04-11T09:53:43Z</time></trkpt><trkpt lat="38.14118235232426" lon="15.458709327835313"><ele>1002.0</ele><time>2026-04-11T09:53:45Z</time></trkpt><trkpt lat="38.14126421371606" lon="15.458786130781268"><ele>1002.0</ele><time>2026-04-11T09:53:47Z</time></trkpt><trkpt lat="38.141316140940795" lon="15.458837721546423"><ele>1003.0</ele><time>2026-04-11T09:53:49Z</time></trkpt><trkpt lat="38.141389038073335" lon="15.45891305990115"><ele>1004.0</ele><time>2026-04-11T09:53:52Z</time></trkpt><trkpt lat="38.14144294020767" lon="15.458972544096792"><ele>1005.0</ele><time>2026-04-11T09:53:54Z</time></trkpt><trkpt lat="38.141521034761865" lon="15.459068876048287"><ele>1006.0</ele><time>2026-04-11T09:53:56Z</time></trkpt><trkpt lat="38.14158354203928" lon="15.459185017930785"><ele>1007.0</ele><time>2026-04-11T09:53:58Z</time></trkpt><trkpt lat="38.141617210731376" lon="15.459267226635419"><ele>1007.0</ele><time>2026-04-11T09:53:59Z</time></trkpt><trkpt lat="38.14162399764699" lon="15.459356864432124"><ele>1007.0</ele><time>2026-04-11T09:54:00Z</time></trkpt><trkpt lat="38.14161013584271" lon="15.45950084160015"><ele>1007.0</ele><time>2026-04-11T09:54:02.001Z</time></trkpt><trkpt lat="38.14161809989644" lon="15.45964358785121"><ele>1007.0</ele><time>2026-04-11T09:54:04.001Z</time></trkpt><trkpt lat="38.14159466909362" lon="15.459763413274606"><ele>1007.0</ele><time>2026-04-11T09:54:06.001Z</time></trkpt><trkpt lat="38.14162122476997" lon="15.45989712708846"><ele>1007.2</ele><time>2026-04-11T09:54:08.001Z</time></trkpt><trkpt lat="38.14166429216854" lon="15.459962498209034"><ele>1007.4000000000001</ele><time>2026-04-11T09:54:09.001Z</time></trkpt><trkpt lat="38.14171148338767" lon="15.460017136847998"><ele>1007.5999999999999</ele><time>2026-04-11T09:54:10.001Z</time></trkpt><trkpt lat="38.14179179164858" lon="15.460094001334522"><ele>1007.8</ele><time>2026-04-11T09:54:12.001Z</time></trkpt><trkpt lat="38.14189321146177" lon="15.460169715553425"><ele>1008.0</ele><time>2026-04-11T09:54:14.001Z</time></trkpt><trkpt lat="38.14198030480632" lon="15.46023618511714"><ele>1008.0</ele><time>2026-04-11T09:54:16.001Z</time></trkpt><trkpt lat="38.14205030025041" lon="15.460289605526656"><ele>1008.0</ele><time>2026-04-11T09:54:18.001Z</time></trkpt><trkpt lat="38.142141865340434" lon="15.460359843176507"><ele>1008.0</ele><time>2026-04-11T09:54:20.001Z</time></trkpt><trkpt lat="38.14221316463961" lon="15.460414725334966"><ele>1008.0</ele><time>2026-04-11T09:54:22.001Z</time></trkpt><trkpt lat="38.1422945855233" lon="15.460483380392878"><ele>1008.0</ele><time>2026-04-11T09:54:24.001Z</time></trkpt><trkpt lat="38.14238954248589" lon="15.460566589273117"><ele>1008.2</ele><time>2026-04-11T09:54:26.001Z</time></trkpt><trkpt lat="38.142470022690475" lon="15.460661361834772"><ele>1008.4</ele><time>2026-04-11T09:54:28.001Z</time></trkpt><trkpt lat="38.14252147827549" lon="15.460793957831262"><ele>1008.6000000000001</ele><time>2026-04-11T09:54:30.001Z</time></trkpt><trkpt lat="38.14255106315057" lon="15.46086824486863"><ele>1008.8000000000001</ele><time>2026-04-11T09:54:31.001Z</time></trkpt><trkpt lat="38.142604735961235" lon="15.460970901906927"><ele>1009.0</ele><time>2026-04-11T09:54:33.001Z</time></trkpt><trkpt lat="38.14267546426446" lon="15.461046460799123"><ele>1009.0</ele><time>2026-04-11T09:54:35.001Z</time></trkpt><trkpt lat="38.142757625711276" lon="15.461122397283665"><ele>1009.0000000000001</ele><time>2026-04-11T09:54:37.001Z</time></trkpt><trkpt lat="38.14285466504822" lon="15.461157350861123"><ele>1009.0000000000001</ele><time>2026-04-11T09:54:39.001Z</time></trkpt><trkpt lat="38.142954661459065" lon="15.46121160363318"><ele>1009.0</ele><time>2026-04-11T09:54:41.001Z</time></trkpt><trkpt lat="38.143056825080166" lon="15.461215783185317"><ele>1009.0</ele><time>2026-04-11T09:54:43.001Z</time></trkpt><trkpt lat="38.14315469249981" lon="15.461239476040848"><ele>1013.25</ele><time>2026-04-11T09:54:45.001Z</time></trkpt><trkpt lat="38.14326578171843" lon="15.461255576233837"><ele>1017.5</ele><time>2026-04-11T09:54:47.001Z</time></trkpt><trkpt lat="38.143356263597205" lon="15.461263473807364"><ele>1021.75</ele><time>2026-04-11T09:54:49.002Z</time></trkpt><trkpt lat="38.143458338716414" lon="15.461271294906718"><ele>1026.0</ele><time>2026-04-11T09:54:51.002Z</time></trkpt><trkpt lat="38.14362905385429" lon="15.461264583477517"><ele>1020.1999999999999</ele><time>2026-04-11T09:54:52.999Z</time></trkpt><trkpt lat="38.14372242863855" lon="15.46129187711339"><ele>1014.3999999999999</ele><time>2026-04-11T09:54:53.999Z</time></trkpt><trkpt lat="38.14380742221477" lon="15.461300779406917"><ele>1008.6</ele><time>2026-04-11T09:54:54.999Z</time></trkpt><trkpt lat="38.14394442590494" lon="15.461315127069653"><ele>1002.8</ele><time>2026-04-11T09:54:56.999Z</time></trkpt><trkpt lat="38.14406271249885" lon="15.461318768669342"><ele>997.0</ele><time>2026-04-11T09:54:58.999Z</time></trkpt><trkpt lat="38.14413531610381" lon="15.46131315601884"><ele>996.4000000000001</ele><time>2026-04-11T09:54:59.999Z</time></trkpt><trkpt lat="38.14422336151293" lon="15.46132295844782"><ele>995.8000000000001</ele><time>2026-04-11T09:55:00.999Z</time></trkpt><trkpt lat="38.1442976265179" lon="15.461306511032072"><ele>995.2</ele><time>2026-04-11T09:55:01.999Z</time></trkpt><trkpt lat="38.144413782386756" lon="15.461250309121864"><ele>994.6</ele><time>2026-04-11T09:55:03.999Z</time></trkpt><trkpt lat="38.144477312560035" lon="15.461230727219455"><ele>994.0</ele><time>2026-04-11T09:55:04.999Z</time></trkpt><trkpt lat="38.14458773441072" lon="15.461207398344737"><ele>998.6</ele><time>2026-04-11T09:55:06.999Z</time></trkpt><trkpt lat="38.1447108962803" lon="15.4612575286369"><ele>1003.2</ele><time>2026-04-11T09:55:08.999Z</time></trkpt><trkpt lat="38.14482509223635" lon="15.461261363868637"><ele>1007.8000000000001</ele><time>2026-04-11T09:55:10.999Z</time></trkpt><trkpt lat="38.14493107318027" lon="15.461230505657486"><ele>1012.4000000000001</ele><time>2026-04-11T09:55:12.999Z</time></trkpt><trkpt lat="38.14499677568291" lon="15.461215652681704"><ele>1017.0</ele><time>2026-04-11T09:55:13.999Z</time></trkpt><trkpt lat="38.145070176095714" lon="15.461187887594406"><ele>1017.0</ele><time>2026-04-11T09:55:15Z</time></trkpt><trkpt lat="38.145140289838125" lon="15.461165773349457"><ele>1017.0</ele><time>2026-04-11T09:55:16Z</time></trkpt><trkpt lat="38.14520416958518" lon="15.46117343329811"><ele>1017.0</ele><time>2026-04-11T09:55:17Z</time></trkpt><trkpt lat="38.14531076626009" lon="15.461175543343565"><ele>1017.0</ele><time>2026-04-11T09:55:19Z</time></trkpt><trkpt lat="38.14539940139351" lon="15.46122884885779"><ele>1017.0</ele><time>2026-04-11T09:55:21Z</time></trkpt><trkpt lat="38.145450940369074" lon="15.461339196173332"><ele>1017.0</ele><time>2026-04-11T09:55:23Z</time></trkpt><trkpt lat="38.14549082424544" lon="15.461405006288373"><ele>1014.6666666666666</ele><time>2026-04-11T09:55:24Z</time></trkpt><trkpt lat="38.145541443282845" lon="15.461488529740022"><ele>1012.3333333333333</ele><time>2026-04-11T09:55:25Z</time></trkpt><trkpt lat="38.145596162381274" lon="15.46157443936212"><ele>1010.0</ele><time>2026-04-11T09:55:26Z</time></trkpt><trkpt lat="38.145649420904235" lon="15.461649976723384"><ele>1007.6666666666666</ele><time>2026-04-11T09:55:27Z</time></trkpt><trkpt lat="38.14569399111866" lon="15.461706866389358"><ele>1005.3333333333333</ele><time>2026-04-11T09:55:28Z</time></trkpt><trkpt lat="38.14575270306745" lon="15.4617689103825"><ele>1003.0</ele><time>2026-04-11T09:55:30Z</time></trkpt><trkpt lat="38.1458946288429" lon="15.461776260819308"><ele>1002.9999999999999</ele><time>2026-04-11T09:55:32Z</time></trkpt><trkpt lat="38.145974430360724" lon="15.461822274753915"><ele>1003.0</ele><time>2026-04-11T09:55:33Z</time></trkpt><trkpt lat="38.14603896847567" lon="15.461872252866058"><ele>1003.0</ele><time>2026-04-11T09:55:34Z</time></trkpt><trkpt lat="38.14609940349471" lon="15.461917644933317"><ele>1003.0</ele><time>2026-04-11T09:55:35Z</time></trkpt><trkpt lat="38.14615335170825" lon="15.461963249102793"><ele>1002.9999999999999</ele><time>2026-04-11T09:55:36Z</time></trkpt><trkpt lat="38.146232427312434" lon="15.462048427294272"><ele>1003.0</ele><time>2026-04-11T09:55:38Z</time></trkpt><trkpt lat="38.14626914713346" lon="15.462130471073584"><ele>997.0</ele><time>2026-04-11T09:55:40Z</time></trkpt><trkpt lat="38.146210104403146" lon="15.462250626281364"><ele>991.0</ele><time>2026-04-11T09:55:42Z</time></trkpt><trkpt lat="38.14618830067439" lon="15.462350817090563"><ele>985.0</ele><time>2026-04-11T09:55:43Z</time></trkpt><trkpt lat="38.1461797554644" lon="15.462435851980697"><ele>979.0</ele><time>2026-04-11T09:55:44Z</time></trkpt><trkpt lat="38.14617437828508" lon="15.462566693919698"><ele>973.0</ele><time>2026-04-11T09:55:46Z</time></trkpt><trkpt lat="38.14621181831245" lon="15.462695603090015"><ele>972.9999999999999</ele><time>2026-04-11T09:55:48Z</time></trkpt><trkpt lat="38.14631595057566" lon="15.462704114637805"><ele>973.0</ele><time>2026-04-11T09:55:49Z</time></trkpt><trkpt lat="38.14642048179705" lon="15.462665040493846"><ele>973.0</ele><time>2026-04-11T09:55:51Z</time></trkpt><trkpt lat="38.1464728232886" lon="15.462594720988225"><ele>973.0</ele><time>2026-04-11T09:55:52.001Z</time></trkpt><trkpt lat="38.14653319086307" lon="15.46254372661019"><ele>972.9999999999999</ele><time>2026-04-11T09:55:53.001Z</time></trkpt><trkpt lat="38.14660341047159" lon="15.462519324375668"><ele>973.0</ele><time>2026-04-11T09:55:54.001Z</time></trkpt><trkpt lat="38.1466771519113" lon="15.462485938734742"><ele>973.8333333333333</ele><time>2026-04-11T09:55:55.001Z</time></trkpt><trkpt lat="38.14674201089147" lon="15.462423243944292"><ele>974.6666666666666</ele><time>2026-04-11T09:55:56.001Z</time></trkpt><trkpt lat="38.14680769674521" lon="15.462371851527001"><ele>975.5</ele><time>2026-04-11T09:55:57.001Z</time></trkpt><trkpt lat="38.14686751718447" lon="15.462315155603411"><ele>976.3333333333333</ele><time>2026-04-11T09:55:58.001Z</time></trkpt><trkpt lat="38.14693163049794" lon="15.46227615680098"><ele>977.1666666666666</ele><time>2026-04-11T09:55:59.001Z</time></trkpt><trkpt lat="38.14699090095698" lon="15.462226895639505"><ele>978.0</ele><time>2026-04-11T09:56:00.001Z</time></trkpt><trkpt lat="38.147109661909795" lon="15.462210578365056"><ele>978.0</ele><time>2026-04-11T09:56:02.001Z</time></trkpt><trkpt lat="38.147228864536324" lon="15.462220498912504"><ele>978.0</ele><time>2026-04-11T09:56:04.001Z</time></trkpt><trkpt lat="38.147321313601914" lon="15.462150603005536"><ele>978.0</ele><time>2026-04-11T09:56:06.001Z</time></trkpt><trkpt lat="38.14741698316096" lon="15.462064227578804"><ele>978.0</ele><time>2026-04-11T09:56:08.001Z</time></trkpt><trkpt lat="38.14746775772588" lon="15.462000919236688"><ele>978.0</ele><time>2026-04-11T09:56:09.001Z</time></trkpt><trkpt lat="38.147507363257205" lon="15.46193583067053"><ele>982.3333333333334</ele><time>2026-04-11T09:56:10.001Z</time></trkpt><trkpt lat="38.14754661292868" lon="15.461860650585548"><ele>986.6666666666667</ele><time>2026-04-11T09:56:11.001Z</time></trkpt><trkpt lat="38.14760964800772" lon="15.461740346289817"><ele>991.0</ele><time>2026-04-11T09:56:13.001Z</time></trkpt><trkpt lat="38.14765631936333" lon="15.461673556069004"><ele>995.3333333333334</ele><time>2026-04-11T09:56:14.001Z</time></trkpt><trkpt lat="38.14772179700423" lon="15.461605220657063"><ele>999.6666666666667</ele><time>2026-04-11T09:56:15.001Z</time></trkpt><trkpt lat="38.14778203845816" lon="15.461559688103163"><ele>1004.0</ele><time>2026-04-11T09:56:16.001Z</time></trkpt><trkpt lat="38.147845288391615" lon="15.461525281864864"><ele>1004.0000000000001</ele><time>2026-04-11T09:56:17.001Z</time></trkpt><trkpt lat="38.147913770128675" lon="15.46149691621763"><ele>1004.0</ele><time>2026-04-11T09:56:18.001Z</time></trkpt><trkpt lat="38.14797976576404" lon="15.4614746756475"><ele>1004.0</ele><time>2026-04-11T09:56:19.001Z</time></trkpt><trkpt lat="38.14804475099573" lon="15.461451580512069"><ele>1004.0</ele><time>2026-04-11T09:56:20.001Z</time></trkpt><trkpt lat="38.148149931518965" lon="15.461402887209214"><ele>1004.0000000000001</ele><time>2026-04-11T09:56:22.001Z</time></trkpt><trkpt lat="38.148215408425706" lon="15.461323229599833"><ele>1004.0</ele><time>2026-04-11T09:56:24.001Z</time></trkpt><trkpt lat="38.148286322720075" lon="15.461268105714831"><ele>1000.1666666666667</ele><time>2026-04-11T09:56:26.001Z</time></trkpt><trkpt lat="38.14838622128745" lon="15.461253884253669"><ele>996.3333333333334</ele><time>2026-04-11T09:56:28.001Z</time></trkpt><trkpt lat="38.14847564033996" lon="15.461265159689452"><ele>992.5</ele><time>2026-04-11T09:56:30.001Z</time></trkpt><trkpt lat="38.1485451278189" lon="15.461293704142616"><ele>988.6666666666667</ele><time>2026-04-11T09:56:33.001Z</time></trkpt><trkpt lat="38.148609017958165" lon="15.461324444760347"><ele>984.8333333333334</ele><time>2026-04-11T09:56:35.002Z</time></trkpt><trkpt lat="38.14869455950631" lon="15.461349715951417"><ele>981.0</ele><time>2026-04-11T09:56:37.002Z</time></trkpt><trkpt lat="38.148790006689396" lon="15.461395596349114"><ele>981.0</ele><time>2026-04-11T09:56:39.002Z</time></trkpt><trkpt lat="38.14890162642593" lon="15.4614196318288"><ele>980.9999999999999</ele><time>2026-04-11T09:56:41.002Z</time></trkpt><trkpt lat="38.14896583117007" lon="15.461421045637707"><ele>980.9999999999999</ele><time>2026-04-11T09:56:42.002Z</time></trkpt><trkpt lat="38.14907514467814" lon="15.46145423237303"><ele>981.0</ele><time>2026-04-11T09:56:44.002Z</time></trkpt><trkpt lat="38.14918497943317" lon="15.461482933271746"><ele>981.0</ele><time>2026-04-11T09:56:46.002Z</time></trkpt><trkpt lat="38.14928492413276" lon="15.461472230915914"><ele>980.8333333333334</ele><time>2026-04-11T09:56:48.002Z</time></trkpt><trkpt lat="38.149361856400155" lon="15.461498563351753"><ele>980.6666666666667</ele><time>2026-04-11T09:56:50.002Z</time></trkpt><trkpt lat="38.14941558114578" lon="15.461575549981573"><ele>980.5</ele><time>2026-04-11T09:56:52.002Z</time></trkpt><trkpt lat="38.14947885271979" lon="15.461618169362511"><ele>980.3333333333334</ele><time>2026-04-11T09:56:53.002Z</time></trkpt><trkpt lat="38.149531541010866" lon="15.461691325703859"><ele>980.1666666666667</ele><time>2026-04-11T09:56:54.002Z</time></trkpt><trkpt lat="38.14959178165514" lon="15.461743381523245"><ele>980.0</ele><time>2026-04-11T09:56:55.002Z</time></trkpt><trkpt lat="38.14964954261401" lon="15.461797509821052"><ele>980.0</ele><time>2026-04-11T09:56:56.002Z</time></trkpt><trkpt lat="38.149745841002144" lon="15.461886126179161"><ele>980.0</ele><time>2026-04-11T09:56:58Z</time></trkpt><trkpt lat="38.14976981198761" lon="15.462016761561541"><ele>980.0</ele><time>2026-04-11T09:57:00Z</time></trkpt><trkpt lat="38.1498003582322" lon="15.46215064169013"><ele>980.0</ele><time>2026-04-11T09:57:02Z</time></trkpt><trkpt lat="38.149841634536266" lon="15.462263121233361"><ele>980.0</ele><time>2026-04-11T09:57:04Z</time></trkpt><trkpt lat="38.14991284950976" lon="15.462372026252787"><ele>980.4</ele><time>2026-04-11T09:57:06Z</time></trkpt><trkpt lat="38.149984986469775" lon="15.462465562497252"><ele>980.8</ele><time>2026-04-11T09:57:08Z</time></trkpt><trkpt lat="38.15006218468282" lon="15.46253368040175"><ele>981.2</ele><time>2026-04-11T09:57:10Z</time></trkpt><trkpt lat="38.15015452200984" lon="15.462579436307623"><ele>981.6</ele><time>2026-04-11T09:57:12Z</time></trkpt><trkpt lat="38.15024837481527" lon="15.462597104627196"><ele>982.0</ele><time>2026-04-11T09:57:14Z</time></trkpt><trkpt lat="38.15032473452227" lon="15.462642662289014"><ele>981.9999999999999</ele><time>2026-04-11T09:57:16Z</time></trkpt><trkpt lat="38.15037313396217" lon="15.462716406484832"><ele>982.0</ele><time>2026-04-11T09:57:18Z</time></trkpt><trkpt lat="38.15041522644221" lon="15.462778225886321"><ele>982.0</ele><time>2026-04-11T09:57:23Z</time></trkpt><trkpt lat="38.15048691789687" lon="15.46280647991862"><ele>982.0</ele><time>2026-04-11T09:57:27Z</time></trkpt><trkpt lat="38.15055003264758" lon="15.462808516345646"><ele>981.9999999999999</ele><time>2026-04-11T09:57:29Z</time></trkpt><trkpt lat="38.1506300462354" lon="15.46283164926052"><ele>982.0</ele><time>2026-04-11T09:57:31Z</time></trkpt><trkpt lat="38.15072393632586" lon="15.462838264941572"><ele>982.4999999999999</ele><time>2026-04-11T09:57:33.001Z</time></trkpt><trkpt lat="38.1507971503859" lon="15.462849312338456"><ele>983.0</ele><time>2026-04-11T09:57:35.001Z</time></trkpt><trkpt lat="38.150869186873805" lon="15.462870788787386"><ele>983.5</ele><time>2026-04-11T09:57:37.001Z</time></trkpt><trkpt lat="38.1509440798086" lon="15.462893116782237"><ele>984.0</ele><time>2026-04-11T09:57:40.001Z</time></trkpt><trkpt lat="38.151012957354084" lon="15.462891080619057"><ele>984.4999999999999</ele><time>2026-04-11T09:57:43.001Z</time></trkpt><trkpt lat="38.15108628900998" lon="15.462923457754632"><ele>985.0</ele><time>2026-04-11T09:57:48.001Z</time></trkpt><trkpt lat="38.15117252104268" lon="15.462903162796843"><ele>985.0</ele><time>2026-04-11T09:57:52.001Z</time></trkpt><trkpt lat="38.15123825247685" lon="15.462863500537226"><ele>985.0</ele><time>2026-04-11T09:57:54.001Z</time></trkpt><trkpt lat="38.15131029357857" lon="15.462792548644991"><ele>985.0</ele><time>2026-04-11T09:57:56.001Z</time></trkpt><trkpt lat="38.1514204006337" lon="15.462743746671228"><ele>985.0</ele><time>2026-04-11T09:57:58.001Z</time></trkpt><trkpt lat="38.151513193904" lon="15.462717457661668"><ele>985.0</ele><time>2026-04-11T09:58:00.001Z</time></trkpt><trkpt lat="38.151611174494306" lon="15.462685249802563"><ele>983.3333333333333</ele><time>2026-04-11T09:58:02.001Z</time></trkpt><trkpt lat="38.15170458156551" lon="15.462654128497123"><ele>981.6666666666666</ele><time>2026-04-11T09:58:04.001Z</time></trkpt><trkpt lat="38.15179776761136" lon="15.462664059866736"><ele>980.0</ele><time>2026-04-11T09:58:06.001Z</time></trkpt><trkpt lat="38.15187523205018" lon="15.462662001972635"><ele>978.3333333333333</ele><time>2026-04-11T09:58:08.001Z</time></trkpt><trkpt lat="38.15194157992045" lon="15.462646657496443"><ele>976.6666666666666</ele><time>2026-04-11T09:58:11.001Z</time></trkpt><trkpt lat="38.15201159307072" lon="15.462644186270564"><ele>975.0</ele><time>2026-04-11T09:58:16.001Z</time></trkpt><trkpt lat="38.15206693149241" lon="15.46260399179443"><ele>975.0</ele><time>2026-04-11T09:58:18.001Z</time></trkpt><trkpt lat="38.152130183856684" lon="15.462578697793543"><ele>975.0</ele><time>2026-04-11T09:58:20.002Z</time></trkpt><trkpt lat="38.15222369193395" lon="15.46256634557354"><ele>975.0</ele><time>2026-04-11T09:58:22.002Z</time></trkpt><trkpt lat="38.15230987303738" lon="15.462580659602148"><ele>975.0</ele><time>2026-04-11T09:58:24.002Z</time></trkpt><trkpt lat="38.15238156003687" lon="15.462588247896498"><ele>975.0</ele><time>2026-04-11T09:58:27.002Z</time></trkpt><trkpt lat="38.15245161615387" lon="15.462574338477122"><ele>975.0</ele><time>2026-04-11T09:58:30.002Z</time></trkpt><trkpt lat="38.152516217191796" lon="15.462577855329686"><ele>973.5</ele><time>2026-04-11T09:58:32.002Z</time></trkpt><trkpt lat="38.15260959587477" lon="15.462604621596732"><ele>972.0</ele><time>2026-04-11T09:58:34.002Z</time></trkpt><trkpt lat="38.15267558636249" lon="15.462608431308553"><ele>970.5</ele><time>2026-04-11T09:58:35.002Z</time></trkpt><trkpt lat="38.15274673677071" lon="15.46260989005708"><ele>969.0</ele><time>2026-04-11T09:58:36.002Z</time></trkpt><trkpt lat="38.15281544503177" lon="15.462611298734728"><ele>967.5</ele><time>2026-04-11T09:58:37.002Z</time></trkpt><trkpt lat="38.15292915774754" lon="15.462620657284491"><ele>966.0</ele><time>2026-04-11T09:58:39.002Z</time></trkpt><trkpt lat="38.1530325566292" lon="15.462623023302935"><ele>966.0</ele><time>2026-04-11T09:58:41.002Z</time></trkpt><trkpt lat="38.15313710798986" lon="15.462606181964794"><ele>966.0</ele><time>2026-04-11T09:58:43.002Z</time></trkpt><trkpt lat="38.153258396037465" lon="15.46261733673632"><ele>966.0</ele><time>2026-04-11T09:58:45.002Z</time></trkpt><trkpt lat="38.15332663333813" lon="15.462620994247096"><ele>966.0</ele><time>2026-04-11T09:58:46.002Z</time></trkpt><trkpt lat="38.153393417772676" lon="15.462624573885071"><ele>966.0</ele><time>2026-04-11T09:58:47.002Z</time></trkpt><trkpt lat="38.153461250064694" lon="15.462628209684885"><ele>966.0</ele><time>2026-04-11T09:58:48.002Z</time></trkpt><trkpt lat="38.15353100032572" lon="15.462618123672438"><ele>966.3333333333334</ele><time>2026-04-11T09:58:49.002Z</time></trkpt><trkpt lat="38.15359898603279" lon="15.462619889713995"><ele>966.6666666666667</ele><time>2026-04-11T09:58:50.002Z</time></trkpt><trkpt lat="38.15368524584408" lon="15.46259693073639"><ele>967.0</ele><time>2026-04-11T09:58:52.002Z</time></trkpt><trkpt lat="38.15375286701907" lon="15.462610965614674"><ele>967.3333333333334</ele><time>2026-04-11T09:58:54.002Z</time></trkpt><trkpt lat="38.153819608906204" lon="15.462608003740964"><ele>967.6666666666667</ele><time>2026-04-11T09:58:56.002Z</time></trkpt><trkpt lat="38.15389665757937" lon="15.462629448446583"><ele>968.0</ele><time>2026-04-11T09:58:59.002Z</time></trkpt><trkpt lat="38.153930348484685" lon="15.462743356214357"><ele>968.0</ele><time>2026-04-11T09:59:02.002Z</time></trkpt><trkpt lat="38.153970943224586" lon="15.462835890574778"><ele>968.0</ele><time>2026-04-11T09:59:04.001Z</time></trkpt><trkpt lat="38.15399190961534" lon="15.46295337296089"><ele>968.0</ele><time>2026-04-11T09:59:06.001Z</time></trkpt><trkpt lat="38.1540256731928" lon="15.463062269764423"><ele>968.0</ele><time>2026-04-11T09:59:08.001Z</time></trkpt><trkpt lat="38.15408028453461" lon="15.463173693293115"><ele>968.0</ele><time>2026-04-11T09:59:10.001Z</time></trkpt><trkpt lat="38.15412492588401" lon="15.463273784894518"><ele>970.0</ele><time>2026-04-11T09:59:12.001Z</time></trkpt><trkpt lat="38.15416290048756" lon="15.463353856230588"><ele>972.0</ele><time>2026-04-11T09:59:14.001Z</time></trkpt><trkpt lat="38.15424898012042" lon="15.463408808174687"><ele>974.0</ele><time>2026-04-11T09:59:16.001Z</time></trkpt><trkpt lat="38.15435984094155" lon="15.46345230419817"><ele>976.0</ele><time>2026-04-11T09:59:18.001Z</time></trkpt><trkpt lat="38.15446383496586" lon="15.463488125460529"><ele>978.0</ele><time>2026-04-11T09:59:20.001Z</time></trkpt><trkpt lat="38.15455369079585" lon="15.463514500499661"><ele>978.0</ele><time>2026-04-11T09:59:22.001Z</time></trkpt><trkpt lat="38.15464544550656" lon="15.463538741654649"><ele>978.0</ele><time>2026-04-11T09:59:24.001Z</time></trkpt><trkpt lat="38.15472338223743" lon="15.46355933216495"><ele>978.0</ele><time>2026-04-11T09:59:26.001Z</time></trkpt><trkpt lat="38.15479380587218" lon="15.46358522869114"><ele>978.0</ele><time>2026-04-11T09:59:30.001Z</time></trkpt><trkpt lat="38.154871744058454" lon="15.463628172460796"><ele>978.0</ele><time>2026-04-11T09:59:32.001Z</time></trkpt><trkpt lat="38.154953182663505" lon="15.463673870434812"><ele>978.0</ele><time>2026-04-11T09:59:34.001Z</time></trkpt><trkpt lat="38.15500426342133" lon="15.463752652992051"><ele>976.0</ele><time>2026-04-11T09:59:36.001Z</time></trkpt><trkpt lat="38.155076101016085" lon="15.463827203653828"><ele>974.0</ele><time>2026-04-11T09:59:38.001Z</time></trkpt><trkpt lat="38.15516675668643" lon="15.463898448110028"><ele>972.0</ele><time>2026-04-11T09:59:40.001Z</time></trkpt><trkpt lat="38.15525031148736" lon="15.46395163677569"><ele>970.0</ele><time>2026-04-11T09:59:42.001Z</time></trkpt><trkpt lat="38.155334476655014" lon="15.4640011083283"><ele>968.0</ele><time>2026-04-11T09:59:44.001Z</time></trkpt><trkpt lat="38.15542950301198" lon="15.464061239923623"><ele>968.0000000000001</ele><time>2026-04-11T09:59:46.001Z</time></trkpt><trkpt lat="38.15551969193584" lon="15.464106495311807"><ele>968.0</ele><time>2026-04-11T09:59:48.001Z</time></trkpt><trkpt lat="38.15557359354937" lon="15.4641759875621"><ele>968.0</ele><time>2026-04-11T09:59:50.001Z</time></trkpt><trkpt lat="38.15562669657556" lon="15.464242643675746"><ele>968.0</ele><time>2026-04-11T09:59:52.001Z</time></trkpt><trkpt lat="38.15567625769921" lon="15.464314213125853"><ele>968.0000000000001</ele><time>2026-04-11T09:59:54.001Z</time></trkpt><trkpt lat="38.15573130732052" lon="15.464394078549107"><ele>968.0</ele><time>2026-04-11T09:59:56.001Z</time></trkpt><trkpt lat="38.155797461528756" lon="15.464468046503265"><ele>967.8</ele><time>2026-04-11T09:59:58.001Z</time></trkpt><trkpt lat="38.1558797531735" lon="15.46454537609487"><ele>967.5999999999999</ele><time>2026-04-11T10:00:00.001Z</time></trkpt><trkpt lat="38.15595266338998" lon="15.464613182986458"><ele>967.4000000000001</ele><time>2026-04-11T10:00:02.001Z</time></trkpt><trkpt lat="38.156041272942375" lon="15.464703437146868"><ele>967.2</ele><time>2026-04-11T10:00:04.001Z</time></trkpt><trkpt lat="38.1560918153728" lon="15.46477763655976"><ele>967.0</ele><time>2026-04-11T10:00:06.001Z</time></trkpt><trkpt lat="38.15610709203704" lon="15.464903640461122"><ele>967.0</ele><time>2026-04-11T10:00:09.002Z</time></trkpt><trkpt lat="38.156132997021004" lon="15.465017571654958"><ele>967.0</ele><time>2026-04-11T10:00:11.002Z</time></trkpt><trkpt lat="38.1562187623128" lon="15.46509520005026"><ele>967.0</ele><time>2026-04-11T10:00:13.002Z</time></trkpt><trkpt lat="38.156311211208504" lon="15.465157253608034"><ele>967.0</ele><time>2026-04-11T10:00:15.002Z</time></trkpt><trkpt lat="38.15639966898361" lon="15.465178642986888"><ele>967.0</ele><time>2026-04-11T10:00:17.002Z</time></trkpt><trkpt lat="38.156487608519" lon="15.46522042379776"><ele>969.3333333333333</ele><time>2026-04-11T10:00:19.002Z</time></trkpt><trkpt lat="38.15655930902398" lon="15.465279581872984"><ele>971.6666666666666</ele><time>2026-04-11T10:00:22.002Z</time></trkpt><trkpt lat="38.156598803929185" lon="15.465366689983187"><ele>974.0</ele><time>2026-04-11T10:00:24.002Z</time></trkpt><trkpt lat="38.156632666968626" lon="15.465465826273713"><ele>976.3333333333333</ele><time>2026-04-11T10:00:26.002Z</time></trkpt><trkpt lat="38.1566660627322" lon="15.465566675914516"><ele>978.6666666666666</ele><time>2026-04-11T10:00:28.002Z</time></trkpt><trkpt lat="38.15670872933982" lon="15.465643709410424"><ele>981.0</ele><time>2026-04-11T10:00:30.002Z</time></trkpt><trkpt lat="38.156791344817776" lon="15.465676089851604"><ele>981.0</ele><time>2026-04-11T10:00:32.002Z</time></trkpt><trkpt lat="38.15686245132586" lon="15.46568976656967"><ele>981.0</ele><time>2026-04-11T10:00:34.002Z</time></trkpt><trkpt lat="38.156949659752016" lon="15.465695660886995"><ele>981.0</ele><time>2026-04-11T10:00:36.002Z</time></trkpt><trkpt lat="38.157014573080524" lon="15.465703988125743"><ele>981.0</ele><time>2026-04-11T10:00:38.002Z</time></trkpt><trkpt lat="38.157083695345186" lon="15.46572386425375"><ele>981.0</ele><time>2026-04-11T10:00:40.002Z</time></trkpt><trkpt lat="38.15717074981772" lon="15.465810409617713"><ele>981.0</ele><time>2026-04-11T10:00:42.002Z</time></trkpt><trkpt lat="38.15722464814045" lon="15.465935092453204"><ele>981.0</ele><time>2026-04-11T10:00:44.002Z</time></trkpt><trkpt lat="38.15727778010375" lon="15.466050956177776"><ele>980.9999999999999</ele><time>2026-04-11T10:00:46.002Z</time></trkpt><trkpt lat="38.157316036644616" lon="15.466163296898124"><ele>980.9999999999999</ele><time>2026-04-11T10:00:48.002Z</time></trkpt><trkpt lat="38.15730111001014" lon="15.466273774615054"><ele>981.0</ele><time>2026-04-11T10:00:50.002Z</time></trkpt><trkpt lat="38.15723189140105" lon="15.466357797295387"><ele>981.0</ele><time>2026-04-11T10:00:52.002Z</time></trkpt><trkpt lat="38.15716868857117" lon="15.466436226891632"><ele>983.1999999999999</ele><time>2026-04-11T10:00:54.002Z</time></trkpt><trkpt lat="38.15713685339947" lon="15.466539819303533"><ele>985.3999999999999</ele><time>2026-04-11T10:00:56.003Z</time></trkpt><trkpt lat="38.157143458540716" lon="15.466659794026894"><ele>987.6</ele><time>2026-04-11T10:00:58.003Z</time></trkpt><trkpt lat="38.15721792406079" lon="15.466754460392066"><ele>989.8</ele><time>2026-04-11T10:01:00.003Z</time></trkpt><trkpt lat="38.15728130812753" lon="15.466795166323061"><ele>992.0</ele><time>2026-04-11T10:01:01.003Z</time></trkpt><trkpt lat="38.157398462339" lon="15.46682053279291"><ele>992.0</ele><time>2026-04-11T10:01:03.003Z</time></trkpt><trkpt lat="38.15749480438612" lon="15.466735187599259"><ele>992.0</ele><time>2026-04-11T10:01:05.003Z</time></trkpt><trkpt lat="38.157589281844224" lon="15.466691970706856"><ele>992.0</ele><time>2026-04-11T10:01:07.003Z</time></trkpt><trkpt lat="38.15767195632124" lon="15.46663131781837"><ele>992.0</ele><time>2026-04-11T10:01:09.003Z</time></trkpt><trkpt lat="38.15775052344904" lon="15.466625411823172"><ele>992.0</ele><time>2026-04-11T10:01:11.001Z</time></trkpt><trkpt lat="38.15783722000216" lon="15.466636158079723"><ele>992.0000000000001</ele><time>2026-04-11T10:01:13.001Z</time></trkpt><trkpt lat="38.157941384272796" lon="15.466647209176925"><ele>992.0</ele><time>2026-04-11T10:01:15.001Z</time></trkpt><trkpt lat="38.15803631667616" lon="15.466656889220456"><ele>992.0</ele><time>2026-04-11T10:01:17.001Z</time></trkpt><trkpt lat="38.15811936874455" lon="15.466665578405076"><ele>992.0</ele><time>2026-04-11T10:01:19.001Z</time></trkpt><trkpt lat="38.15818323910653" lon="15.466683628574344"><ele>992.0000000000001</ele><time>2026-04-11T10:01:21.001Z</time></trkpt><trkpt lat="38.158238476506085" lon="15.466722352674045"><ele>992.0</ele><time>2026-04-11T10:01:24.001Z</time></trkpt><trkpt lat="38.15829159801469" lon="15.466801320730953"><ele>993.4000000000001</ele><time>2026-04-11T10:01:27.001Z</time></trkpt><trkpt lat="38.15833759301585" lon="15.466890820367112"><ele>994.8000000000001</ele><time>2026-04-11T10:01:29.001Z</time></trkpt><trkpt lat="38.15838808984872" lon="15.467030941967598"><ele>996.2</ele><time>2026-04-11T10:01:31.001Z</time></trkpt><trkpt lat="38.15845859081118" lon="15.467127254193443"><ele>997.6</ele><time>2026-04-11T10:01:33.001Z</time></trkpt><trkpt lat="38.15851656926518" lon="15.467204599301919"><ele>999.0</ele><time>2026-04-11T10:01:35.001Z</time></trkpt><trkpt lat="38.15855195743831" lon="15.467286110280085"><ele>999.0</ele><time>2026-04-11T10:01:37.001Z</time></trkpt><trkpt lat="38.15851854276145" lon="15.467390059464682"><ele>999.0</ele><time>2026-04-11T10:01:39.001Z</time></trkpt><trkpt lat="38.158525335302585" lon="15.467499419094008"><ele>999.0</ele><time>2026-04-11T10:01:42.001Z</time></trkpt><trkpt lat="38.15856618513137" lon="15.467593910528539"><ele>999.0</ele><time>2026-04-11T10:01:44.001Z</time></trkpt><trkpt lat="38.15863382223496" lon="15.467665669834966"><ele>999.0</ele><time>2026-04-11T10:01:46.001Z</time></trkpt><trkpt lat="38.158705220521874" lon="15.467727675909952"><ele>999.0</ele><time>2026-04-11T10:01:48.001Z</time></trkpt><trkpt lat="38.158790095753005" lon="15.467774104221316"><ele>999.0</ele><time>2026-04-11T10:01:50.001Z</time></trkpt><trkpt lat="38.158879811038005" lon="15.467812042520968"><ele>999.0000000000001</ele><time>2026-04-11T10:01:52.001Z</time></trkpt><trkpt lat="38.15898727622699" lon="15.467858033767603"><ele>999.0000000000001</ele><time>2026-04-11T10:01:54.001Z</time></trkpt><trkpt lat="38.15909244055555" lon="15.467881736266246"><ele>999.0</ele><time>2026-04-11T10:01:56.001Z</time></trkpt><trkpt lat="38.15920305826899" lon="15.46787400501329"><ele>999.0</ele><time>2026-04-11T10:01:58.002Z</time></trkpt><trkpt lat="38.159300764007895" lon="15.467855762730943"><ele>1004.3333333333334</ele><time>2026-04-11T10:02:00.002Z</time></trkpt><trkpt lat="38.15937355059252" lon="15.467840444951905"><ele>1009.6666666666667</ele><time>2026-04-11T10:02:02.002Z</time></trkpt><trkpt lat="38.15945119161357" lon="15.4678277004083"><ele>1015.0</ele><time>2026-04-11T10:02:04.002Z</time></trkpt><trkpt lat="38.15953937973266" lon="15.467811548195714"><ele>1020.3333333333334</ele><time>2026-04-11T10:02:06.002Z</time></trkpt><trkpt lat="38.1596016388686" lon="15.467784990310568"><ele>1025.6666666666667</ele><time>2026-04-11T10:03:13.003Z</time></trkpt><trkpt lat="38.15963609270191" lon="15.467662137279852"><ele>1031.0</ele><time>2026-04-11T10:03:15.003Z</time></trkpt><trkpt lat="38.159666802207795" lon="15.467563690645799"><ele>1031.0</ele><time>2026-04-11T10:03:17.002Z</time></trkpt><trkpt lat="38.159715989677416" lon="15.46748515923983"><ele>1031.0</ele><time>2026-04-11T10:03:19.002Z</time></trkpt><trkpt lat="38.15977720744489" lon="15.467397548108934"><ele>1031.0</ele><time>2026-04-11T10:03:21.002Z</time></trkpt><trkpt lat="38.15982228149002" lon="15.467335372126211"><ele>1031.0</ele><time>2026-04-11T10:03:23.002Z</time></trkpt><trkpt lat="38.159898564326426" lon="15.467265688609631"><ele>1031.0</ele><time>2026-04-11T10:03:27.001Z</time></trkpt><trkpt lat="38.15996440138745" lon="15.467233315716394"><ele>1031.0</ele><time>2026-04-11T10:03:29.001Z</time></trkpt><trkpt lat="38.16004721971026" lon="15.467214865463376"><ele>1029.0</ele><time>2026-04-11T10:03:31.001Z</time></trkpt><trkpt lat="38.1601182950928" lon="15.467202252577318"><ele>1027.0</ele><time>2026-04-11T10:03:33.001Z</time></trkpt><trkpt lat="38.16020288246694" lon="15.467180477487803"><ele>1025.0</ele><time>2026-04-11T10:03:35.001Z</time></trkpt><trkpt lat="38.16030298170241" lon="15.467139894252943"><ele>1023.0</ele><time>2026-04-11T10:03:37.001Z</time></trkpt><trkpt lat="38.16039353293363" lon="15.467101276399525"><ele>1021.0000000000001</ele><time>2026-04-11T10:03:39.001Z</time></trkpt><trkpt lat="38.16045437753569" lon="15.467047835225234"><ele>1019.0</ele><time>2026-04-11T10:03:41.001Z</time></trkpt><trkpt lat="38.16052172902192" lon="15.466960983583517"><ele>1028.0</ele><time>2026-04-11T10:03:43.001Z</time></trkpt><trkpt lat="38.160589976422976" lon="15.4668602584117"><ele>1037.0</ele><time>2026-04-11T10:03:45.001Z</time></trkpt><trkpt lat="38.160622089776766" lon="15.466750980311495"><ele>1046.0</ele><time>2026-04-11T10:03:47.001Z</time></trkpt><trkpt lat="38.160641281640686" lon="15.466634925044241"><ele>1055.0</ele><time>2026-04-11T10:03:49.001Z</time></trkpt><trkpt lat="38.16063782447131" lon="15.466508372308367"><ele>1064.0</ele><time>2026-04-11T10:03:51.001Z</time></trkpt><trkpt lat="38.16060920989222" lon="15.46636381163641"><ele>1064.0</ele><time>2026-04-11T10:03:53.001Z</time></trkpt><trkpt lat="38.160590809189614" lon="15.466280740805013"><ele>1064.0</ele><time>2026-04-11T10:03:54.001Z</time></trkpt><trkpt lat="38.16056762353082" lon="15.46616345341169"><ele>1064.0</ele><time>2026-04-11T10:03:56.001Z</time></trkpt><trkpt lat="38.16055500883907" lon="15.466060244015996"><ele>1064.0</ele><time>2026-04-11T10:03:58.002Z</time></trkpt><trkpt lat="38.160549767806565" lon="15.465954906989538"><ele>1064.0</ele><time>2026-04-11T10:04:00.002Z</time></trkpt><trkpt lat="38.160567018390154" lon="15.465851910576191"><ele>1064.0</ele><time>2026-04-11T10:04:02.002Z</time></trkpt><trkpt lat="38.160609833062" lon="15.465769919957477"><ele>1065.8333333333335</ele><time>2026-04-11T10:04:04.002Z</time></trkpt><trkpt lat="38.16069316001064" lon="15.465704453232938"><ele>1067.6666666666667</ele><time>2026-04-11T10:04:06.002Z</time></trkpt><trkpt lat="38.16076701786519" lon="15.465624847121981"><ele>1069.5</ele><time>2026-04-11T10:04:08.002Z</time></trkpt><trkpt lat="38.16084822772012" lon="15.46557895787358"><ele>1071.3333333333333</ele><time>2026-04-11T10:04:10.002Z</time></trkpt><trkpt lat="38.16090194072638" lon="15.465521365249213"><ele>1073.1666666666665</ele><time>2026-04-11T10:04:11.002Z</time></trkpt><trkpt lat="38.16096197663975" lon="15.46545993948534"><ele>1075.0</ele><time>2026-04-11T10:04:12.002Z</time></trkpt><trkpt lat="38.161040176495106" lon="15.465421697493895"><ele>1075.0000000000002</ele><time>2026-04-11T10:04:13.002Z</time></trkpt><trkpt lat="38.1611176188675" lon="15.465348266970194"><ele>1075.0</ele><time>2026-04-11T10:04:14.002Z</time></trkpt><trkpt lat="38.16116340203118" lon="15.465278239001227"><ele>1075.0</ele><time>2026-04-11T10:04:15.002Z</time></trkpt><trkpt lat="38.161230821784734" lon="15.465247152537238"><ele>1075.0</ele><time>2026-04-11T10:04:16.002Z</time></trkpt><trkpt lat="38.161295008877794" lon="15.465210549590136"><ele>1075.0</ele><time>2026-04-11T10:04:17.002Z</time></trkpt><trkpt lat="38.16136000197655" lon="15.465176885082705"><ele>1075.0000000000002</ele><time>2026-04-11T10:04:18.002Z</time></trkpt><trkpt lat="38.161418324671615" lon="15.46514362898693"><ele>1075.0</ele><time>2026-04-11T10:04:19.002Z</time></trkpt><trkpt lat="38.161484376493256" lon="15.465081875453333"><ele>1075.0</ele><time>2026-04-11T10:04:21.002Z</time></trkpt><trkpt lat="38.161567339063595" lon="15.465084951294873"><ele>1075.0</ele><time>2026-04-11T10:04:24.002Z</time></trkpt><trkpt lat="38.16162259138338" lon="15.465023639926399"><ele>1075.0</ele><time>2026-04-11T10:04:29.002Z</time></trkpt><trkpt lat="38.16166612265676" lon="15.465159428556513"><ele>1075.0</ele><time>2026-04-11T10:08:55.001Z</time></trkpt><trkpt lat="38.161594612079504" lon="15.465128966102622"><ele>1075.0</ele><time>2026-04-11T10:13:10.001Z</time></trkpt><trkpt lat="38.1615114302856" lon="15.465102491337177"><ele>1075.0</ele><time>2026-04-11T10:13:13.001Z</time></trkpt><trkpt lat="38.16145983682403" lon="15.465017248608557"><ele>1075.0</ele><time>2026-04-11T10:13:17.001Z</time></trkpt><trkpt lat="38.16140263434403" lon="15.46491230707837"><ele>1075.0</ele><time>2026-04-11T10:13:20.001Z</time></trkpt><trkpt lat="38.16133625008101" lon="15.464819323197373"><ele>1075.0</ele><time>2026-04-11T10:13:22.001Z</time></trkpt><trkpt lat="38.16128974551706" lon="15.464758957898567"><ele>1075.0</ele><time>2026-04-11T10:13:23.001Z</time></trkpt><trkpt lat="38.16123280974565" lon="15.464687003022476"><ele>1075.0</ele><time>2026-04-11T10:13:25.001Z</time></trkpt><trkpt lat="38.1611759384215" lon="15.464603734410748"><ele>1075.0</ele><time>2026-04-11T10:13:27.001Z</time></trkpt><trkpt lat="38.161081951099696" lon="15.46451780416858"><ele>1074.0</ele><time>2026-04-11T10:13:29.001Z</time></trkpt><trkpt lat="38.16098194946273" lon="15.46443383178316"><ele>1073.0</ele><time>2026-04-11T10:13:31.001Z</time></trkpt><trkpt lat="38.160941880565545" lon="15.464361707924995"><ele>1072.0</ele><time>2026-04-11T10:13:32.001Z</time></trkpt><trkpt lat="38.16088466749177" lon="15.46429581583383"><ele>1071.0</ele><time>2026-04-11T10:13:33.001Z</time></trkpt><trkpt lat="38.160808892555025" lon="15.464224179168943"><ele>1070.0</ele><time>2026-04-11T10:13:34.001Z</time></trkpt><trkpt lat="38.16075470022808" lon="15.464111231159515"><ele>1070.0</ele><time>2026-04-11T10:13:35.001Z</time></trkpt><trkpt lat="38.16070639361839" lon="15.463972583904445"><ele>1070.0</ele><time>2026-04-11T10:13:36.001Z</time></trkpt><trkpt lat="38.1606499334726" lon="15.463810361911362"><ele>1070.0</ele><time>2026-04-11T10:13:37.001Z</time></trkpt><trkpt lat="38.16059663577949" lon="15.463634780991844"><ele>1070.0</ele><time>2026-04-11T10:13:38.001Z</time></trkpt><trkpt lat="38.16055115384723" lon="15.463500354696917"><ele>1073.0</ele><time>2026-04-11T10:13:39.001Z</time></trkpt><trkpt lat="38.1604760642182" lon="15.46340602827121"><ele>1076.0</ele><time>2026-04-11T10:13:40.001Z</time></trkpt><trkpt lat="38.16038632401581" lon="15.46325599202395"><ele>1079.0</ele><time>2026-04-11T10:13:41.001Z</time></trkpt><trkpt lat="38.16027475135057" lon="15.463155765105615"><ele>1082.0</ele><time>2026-04-11T10:13:42.001Z</time></trkpt><trkpt lat="38.160197772136605" lon="15.463067651593615"><ele>1082.0</ele><time>2026-04-11T10:13:43.001Z</time></trkpt><trkpt lat="38.16011403931082" lon="15.46302267667764"><ele>1082.0</ele><time>2026-04-11T10:13:44.001Z</time></trkpt><trkpt lat="38.160048142941406" lon="15.462997983546783"><ele>1082.0</ele><time>2026-04-11T10:13:45.001Z</time></trkpt><trkpt lat="38.15996441486029" lon="15.463029721515975"><ele>1082.0</ele><time>2026-04-11T10:13:46.001Z</time></trkpt><trkpt lat="38.15987137976815" lon="15.463117200910604"><ele>1082.0</ele><time>2026-04-11T10:13:47.001Z</time></trkpt><trkpt lat="38.1597731242236" lon="15.463236171988372"><ele>1079.0</ele><time>2026-04-11T10:13:48.001Z</time></trkpt><trkpt lat="38.15965589078348" lon="15.463377988656989"><ele>1076.0</ele><time>2026-04-11T10:13:49.001Z</time></trkpt><trkpt lat="38.159523041430454" lon="15.463495922786525"><ele>1073.0</ele><time>2026-04-11T10:13:50.001Z</time></trkpt><trkpt lat="38.159409834033426" lon="15.463640291608268"><ele>1073.0</ele><time>2026-04-11T10:13:51.001Z</time></trkpt><trkpt lat="38.159259145057526" lon="15.463759084066076"><ele>1073.0</ele><time>2026-04-11T10:13:52.001Z</time></trkpt><trkpt lat="38.159129439194565" lon="15.463868229165898"><ele>1073.0</ele><time>2026-04-11T10:13:53.001Z</time></trkpt><trkpt lat="38.15901986264065" lon="15.463979672360688"><ele>1079.0</ele><time>2026-04-11T10:13:54.001Z</time></trkpt><trkpt lat="38.1589224250793" lon="15.464086973519846"><ele>1085.0</ele><time>2026-04-11T10:13:55.001Z</time></trkpt><trkpt lat="38.15886051212454" lon="15.464176402743195"><ele>1091.0</ele><time>2026-04-11T10:13:56.001Z</time></trkpt><trkpt lat="38.15879907709145" lon="15.464241072347276"><ele>1097.0</ele><time>2026-04-11T10:13:57.001Z</time></trkpt><trkpt lat="38.15873684471931" lon="15.464288732288178"><ele>1103.0</ele><time>2026-04-11T10:13:58.001Z</time></trkpt><trkpt lat="38.15868045460703" lon="15.464328637364698"><ele>1109.0</ele><time>2026-04-11T10:13:59.001Z</time></trkpt><trkpt lat="38.158607336605016" lon="15.464404851056926"><ele>1109.0</ele><time>2026-04-11T10:14:01.001Z</time></trkpt><trkpt lat="38.158565367322346" lon="15.464514538154267"><ele>1109.0</ele><time>2026-04-11T10:14:03.001Z</time></trkpt><trkpt lat="38.15855774038314" lon="15.464644818089406"><ele>1109.0</ele><time>2026-04-11T10:14:05.001Z</time></trkpt><trkpt lat="38.15853334245578" lon="15.464758903431376"><ele>1109.0</ele><time>2026-04-11T10:14:07.001Z</time></trkpt><trkpt lat="38.15852724692363" lon="15.464856715615914"><ele>1109.0</ele><time>2026-04-11T10:14:09.001Z</time></trkpt><trkpt lat="38.158399414650766" lon="15.46494752834887"><ele>1107.0</ele><time>2026-04-11T10:14:14.001Z</time></trkpt><trkpt lat="38.158353350347916" lon="15.464886690894954"><ele>1107.0</ele><time>2026-04-11T10:14:17.001Z</time></trkpt></trkseg></trk></gpx>